<?xml version="1.0" encoding="UTF-8" standalone="no" ?>
<gpx xmlns="http://www.topografix.com/GPX/1/1" xmlns:xsi="http://www.w3.org/2001/XMLSchema-instance" xsi:schemaLocation="http://www.topografix.com/GPX/1/1 http://www.topografix.com/GPX/1/1/gpx.xsd" version="1.1" creator="VisuGPX - https://www.visugpx.com">
  <metadata>
    <name>GR6 étp 49 (17)-14/07/2020 Gramat Rocamadour</name>
  </metadata>
  <trk>
    <name><![CDATA[17-14/07/2020 Gramat Rocamadour]]></name>
    <trkseg>
      <trkpt lat="44.7773" lon="1.72612">
        <ele>381.78</ele>
        <time>2020-07-14T06:34:40Z</time>
      </trkpt>
      <trkpt lat="44.77729" lon="1.72612">
        <ele>334.2</ele>
        <time>2020-07-14T06:34:41Z</time>
      </trkpt>
      <trkpt lat="44.77729" lon="1.72612">
        <ele>334.2</ele>
        <time>2020-07-14T06:34:42Z</time>
      </trkpt>
      <trkpt lat="44.77724" lon="1.7261">
        <ele>334.2</ele>
        <time>2020-07-14T06:35:11Z</time>
      </trkpt>
      <trkpt lat="44.77724" lon="1.72607">
        <ele>334.2</ele>
        <time>2020-07-14T06:35:29Z</time>
      </trkpt>
      <trkpt lat="44.77729" lon="1.72589">
        <ele>333.71</ele>
        <time>2020-07-14T06:35:45Z</time>
      </trkpt>
      <trkpt lat="44.77735" lon="1.72566">
        <ele>333.71</ele>
        <time>2020-07-14T06:35:59Z</time>
      </trkpt>
      <trkpt lat="44.77743" lon="1.72541">
        <ele>332.27</ele>
        <time>2020-07-14T06:36:14Z</time>
      </trkpt>
      <trkpt lat="44.77744" lon="1.72538">
        <ele>331.79</ele>
        <time>2020-07-14T06:36:25Z</time>
      </trkpt>
      <trkpt lat="44.77747" lon="1.72519">
        <ele>331.79</ele>
        <time>2020-07-14T06:36:40Z</time>
      </trkpt>
      <trkpt lat="44.77749" lon="1.72508">
        <ele>331.79</ele>
        <time>2020-07-14T06:36:55Z</time>
      </trkpt>
      <trkpt lat="44.7775" lon="1.7249">
        <ele>330.35</ele>
        <time>2020-07-14T06:37:08Z</time>
      </trkpt>
      <trkpt lat="44.77753" lon="1.72461">
        <ele>327.95</ele>
        <time>2020-07-14T06:37:27Z</time>
      </trkpt>
      <trkpt lat="44.77752" lon="1.72434">
        <ele>327.47</ele>
        <time>2020-07-14T06:37:43Z</time>
      </trkpt>
      <trkpt lat="44.77752" lon="1.72425">
        <ele>326.5</ele>
        <time>2020-07-14T06:38:02Z</time>
      </trkpt>
      <trkpt lat="44.77751" lon="1.72416">
        <ele>326.99</ele>
        <time>2020-07-14T06:38:16Z</time>
      </trkpt>
      <trkpt lat="44.77752" lon="1.72388">
        <ele>325.06</ele>
        <time>2020-07-14T06:38:34Z</time>
      </trkpt>
      <trkpt lat="44.77742" lon="1.72361">
        <ele>322.18</ele>
        <time>2020-07-14T06:38:56Z</time>
      </trkpt>
      <trkpt lat="44.77738" lon="1.72333">
        <ele>319.78</ele>
        <time>2020-07-14T06:39:19Z</time>
      </trkpt>
      <trkpt lat="44.77743" lon="1.7231">
        <ele>316.41</ele>
        <time>2020-07-14T06:39:38Z</time>
      </trkpt>
      <trkpt lat="44.77755" lon="1.72283">
        <ele>315.93</ele>
        <time>2020-07-14T06:39:59Z</time>
      </trkpt>
      <trkpt lat="44.77765" lon="1.72258">
        <ele>315.93</ele>
        <time>2020-07-14T06:40:19Z</time>
      </trkpt>
      <trkpt lat="44.77777" lon="1.72235">
        <ele>315.45</ele>
        <time>2020-07-14T06:40:37Z</time>
      </trkpt>
      <trkpt lat="44.77783" lon="1.72224">
        <ele>315.45</ele>
        <time>2020-07-14T06:40:48Z</time>
      </trkpt>
      <trkpt lat="44.77799" lon="1.72217">
        <ele>315.45</ele>
        <time>2020-07-14T06:41:04Z</time>
      </trkpt>
      <trkpt lat="44.77814" lon="1.72214">
        <ele>317.37</ele>
        <time>2020-07-14T06:41:20Z</time>
      </trkpt>
      <trkpt lat="44.77831" lon="1.72202">
        <ele>317.37</ele>
        <time>2020-07-14T06:41:38Z</time>
      </trkpt>
      <trkpt lat="44.77846" lon="1.72187">
        <ele>316.89</ele>
        <time>2020-07-14T06:41:55Z</time>
      </trkpt>
      <trkpt lat="44.77846" lon="1.72182">
        <ele>316.89</ele>
        <time>2020-07-14T06:42:11Z</time>
      </trkpt>
      <trkpt lat="44.77862" lon="1.72169">
        <ele>316.89</ele>
        <time>2020-07-14T06:42:30Z</time>
      </trkpt>
      <trkpt lat="44.77877" lon="1.72151">
        <ele>317.37</ele>
        <time>2020-07-14T06:42:47Z</time>
      </trkpt>
      <trkpt lat="44.7789" lon="1.7212">
        <ele>319.3</ele>
        <time>2020-07-14T06:43:09Z</time>
      </trkpt>
      <trkpt lat="44.77899" lon="1.72092">
        <ele>320.26</ele>
        <time>2020-07-14T06:43:27Z</time>
      </trkpt>
      <trkpt lat="44.77907" lon="1.72067">
        <ele>320.74</ele>
        <time>2020-07-14T06:43:44Z</time>
      </trkpt>
      <trkpt lat="44.77907" lon="1.72051">
        <ele>319.78</ele>
        <time>2020-07-14T06:43:55Z</time>
      </trkpt>
      <trkpt lat="44.77895" lon="1.72021">
        <ele>317.85</ele>
        <time>2020-07-14T06:44:17Z</time>
      </trkpt>
      <trkpt lat="44.77885" lon="1.71989">
        <ele>315.93</ele>
        <time>2020-07-14T06:44:40Z</time>
      </trkpt>
      <trkpt lat="44.77884" lon="1.71987">
        <ele>315.93</ele>
        <time>2020-07-14T06:44:41Z</time>
      </trkpt>
      <trkpt lat="44.77883" lon="1.71982">
        <ele>317.37</ele>
        <time>2020-07-14T06:44:45Z</time>
      </trkpt>
      <trkpt lat="44.77882" lon="1.71977">
        <ele>317.37</ele>
        <time>2020-07-14T06:44:48Z</time>
      </trkpt>
      <trkpt lat="44.77877" lon="1.7196">
        <ele>316.89</ele>
        <time>2020-07-14T06:45:08Z</time>
      </trkpt>
      <trkpt lat="44.77879" lon="1.7196">
        <ele>316.41</ele>
        <time>2020-07-14T06:45:35Z</time>
      </trkpt>
      <trkpt lat="44.77872" lon="1.71964">
        <ele>316.41</ele>
        <time>2020-07-14T06:46:05Z</time>
      </trkpt>
      <trkpt lat="44.77874" lon="1.71951">
        <ele>314.49</ele>
        <time>2020-07-14T06:46:27Z</time>
      </trkpt>
      <trkpt lat="44.77877" lon="1.71922">
        <ele>314.01</ele>
        <time>2020-07-14T06:46:46Z</time>
      </trkpt>
      <trkpt lat="44.77887" lon="1.71888">
        <ele>312.09</ele>
        <time>2020-07-14T06:47:08Z</time>
      </trkpt>
      <trkpt lat="44.77897" lon="1.71858">
        <ele>311.12</ele>
        <time>2020-07-14T06:47:30Z</time>
      </trkpt>
      <trkpt lat="44.77906" lon="1.71835">
        <ele>312.09</ele>
        <time>2020-07-14T06:47:47Z</time>
      </trkpt>
      <trkpt lat="44.77916" lon="1.71809">
        <ele>313.05</ele>
        <time>2020-07-14T06:48:07Z</time>
      </trkpt>
      <trkpt lat="44.77925" lon="1.71783">
        <ele>314.01</ele>
        <time>2020-07-14T06:48:25Z</time>
      </trkpt>
      <trkpt lat="44.77938" lon="1.71758">
        <ele>315.93</ele>
        <time>2020-07-14T06:48:47Z</time>
      </trkpt>
      <trkpt lat="44.77948" lon="1.71734">
        <ele>317.37</ele>
        <time>2020-07-14T06:49:06Z</time>
      </trkpt>
      <trkpt lat="44.77956" lon="1.71707">
        <ele>317.85</ele>
        <time>2020-07-14T06:49:27Z</time>
      </trkpt>
      <trkpt lat="44.77967" lon="1.71685">
        <ele>319.3</ele>
        <time>2020-07-14T06:49:46Z</time>
      </trkpt>
      <trkpt lat="44.77968" lon="1.71683">
        <ele>319.3</ele>
        <time>2020-07-14T06:50:09Z</time>
      </trkpt>
      <trkpt lat="44.77965" lon="1.7168">
        <ele>318.81</ele>
        <time>2020-07-14T06:50:34Z</time>
      </trkpt>
      <trkpt lat="44.77965" lon="1.71678">
        <ele>318.81</ele>
        <time>2020-07-14T06:50:54Z</time>
      </trkpt>
      <trkpt lat="44.77975" lon="1.71666">
        <ele>318.81</ele>
        <time>2020-07-14T06:51:13Z</time>
      </trkpt>
      <trkpt lat="44.77986" lon="1.71639">
        <ele>319.78</ele>
        <time>2020-07-14T06:51:31Z</time>
      </trkpt>
      <trkpt lat="44.77994" lon="1.71619">
        <ele>319.78</ele>
        <time>2020-07-14T06:51:45Z</time>
      </trkpt>
      <trkpt lat="44.78012" lon="1.71591">
        <ele>320.74</ele>
        <time>2020-07-14T06:52:07Z</time>
      </trkpt>
      <trkpt lat="44.78029" lon="1.7157">
        <ele>320.26</ele>
        <time>2020-07-14T06:52:26Z</time>
      </trkpt>
      <trkpt lat="44.7804" lon="1.71558">
        <ele>319.3</ele>
        <time>2020-07-14T06:52:39Z</time>
      </trkpt>
      <trkpt lat="44.78043" lon="1.71554">
        <ele>318.33</ele>
        <time>2020-07-14T06:52:55Z</time>
      </trkpt>
      <trkpt lat="44.78058" lon="1.71538">
        <ele>315.93</ele>
        <time>2020-07-14T06:53:14Z</time>
      </trkpt>
      <trkpt lat="44.78066" lon="1.71523">
        <ele>314.49</ele>
        <time>2020-07-14T06:53:33Z</time>
      </trkpt>
      <trkpt lat="44.78064" lon="1.71516">
        <ele>314.49</ele>
        <time>2020-07-14T06:53:55Z</time>
      </trkpt>
      <trkpt lat="44.78058" lon="1.71491">
        <ele>311.6</ele>
        <time>2020-07-14T06:54:17Z</time>
      </trkpt>
      <trkpt lat="44.7805" lon="1.71467">
        <ele>309.2</ele>
        <time>2020-07-14T06:54:39Z</time>
      </trkpt>
      <trkpt lat="44.78046" lon="1.71443">
        <ele>306.32</ele>
        <time>2020-07-14T06:54:56Z</time>
      </trkpt>
      <trkpt lat="44.78045" lon="1.71418">
        <ele>304.88</ele>
        <time>2020-07-14T06:55:15Z</time>
      </trkpt>
      <trkpt lat="44.78039" lon="1.71405">
        <ele>301.51</ele>
        <time>2020-07-14T06:55:28Z</time>
      </trkpt>
      <trkpt lat="44.78049" lon="1.71382">
        <ele>300.07</ele>
        <time>2020-07-14T06:55:48Z</time>
      </trkpt>
      <trkpt lat="44.78072" lon="1.71361">
        <ele>298.15</ele>
        <time>2020-07-14T06:56:12Z</time>
      </trkpt>
      <trkpt lat="44.78074" lon="1.71359">
        <ele>298.15</ele>
        <time>2020-07-14T06:56:14Z</time>
      </trkpt>
      <trkpt lat="44.78093" lon="1.71337">
        <ele>298.15</ele>
        <time>2020-07-14T06:56:36Z</time>
      </trkpt>
      <trkpt lat="44.78112" lon="1.71315">
        <ele>297.67</ele>
        <time>2020-07-14T06:56:58Z</time>
      </trkpt>
      <trkpt lat="44.7813" lon="1.71297">
        <ele>297.18</ele>
        <time>2020-07-14T06:57:21Z</time>
      </trkpt>
      <trkpt lat="44.78138" lon="1.71287">
        <ele>296.7</ele>
        <time>2020-07-14T06:57:44Z</time>
      </trkpt>
      <trkpt lat="44.78142" lon="1.71282">
        <ele>296.7</ele>
        <time>2020-07-14T06:57:52Z</time>
      </trkpt>
      <trkpt lat="44.78155" lon="1.71267">
        <ele>296.7</ele>
        <time>2020-07-14T06:58:06Z</time>
      </trkpt>
      <trkpt lat="44.78169" lon="1.71236">
        <ele>295.26</ele>
        <time>2020-07-14T06:58:28Z</time>
      </trkpt>
      <trkpt lat="44.7817" lon="1.7123">
        <ele>296.7</ele>
        <time>2020-07-14T06:58:32Z</time>
      </trkpt>
      <trkpt lat="44.78167" lon="1.712">
        <ele>296.7</ele>
        <time>2020-07-14T06:58:52Z</time>
      </trkpt>
      <trkpt lat="44.7816" lon="1.71166">
        <ele>296.7</ele>
        <time>2020-07-14T06:59:14Z</time>
      </trkpt>
      <trkpt lat="44.78155" lon="1.71138">
        <ele>297.18</ele>
        <time>2020-07-14T06:59:33Z</time>
      </trkpt>
      <trkpt lat="44.78147" lon="1.71113">
        <ele>299.11</ele>
        <time>2020-07-14T06:59:53Z</time>
      </trkpt>
      <trkpt lat="44.78149" lon="1.71081">
        <ele>298.15</ele>
        <time>2020-07-14T07:00:15Z</time>
      </trkpt>
      <trkpt lat="44.78151" lon="1.71054">
        <ele>295.26</ele>
        <time>2020-07-14T07:00:35Z</time>
      </trkpt>
      <trkpt lat="44.78153" lon="1.71048">
        <ele>293.82</ele>
        <time>2020-07-14T07:00:41Z</time>
      </trkpt>
      <trkpt lat="44.7815" lon="1.71021">
        <ele>290.94</ele>
        <time>2020-07-14T07:00:57Z</time>
      </trkpt>
      <trkpt lat="44.78145" lon="1.70987">
        <ele>292.38</ele>
        <time>2020-07-14T07:01:18Z</time>
      </trkpt>
      <trkpt lat="44.78144" lon="1.70967">
        <ele>290.46</ele>
        <time>2020-07-14T07:01:31Z</time>
      </trkpt>
      <trkpt lat="44.78146" lon="1.70943">
        <ele>291.42</ele>
        <time>2020-07-14T07:01:49Z</time>
      </trkpt>
      <trkpt lat="44.78157" lon="1.70926">
        <ele>293.82</ele>
        <time>2020-07-14T07:02:10Z</time>
      </trkpt>
      <trkpt lat="44.78143" lon="1.70909">
        <ele>295.26</ele>
        <time>2020-07-14T07:02:28Z</time>
      </trkpt>
      <trkpt lat="44.78124" lon="1.70905">
        <ele>297.67</ele>
        <time>2020-07-14T07:02:49Z</time>
      </trkpt>
      <trkpt lat="44.78105" lon="1.70904">
        <ele>299.59</ele>
        <time>2020-07-14T07:03:10Z</time>
      </trkpt>
      <trkpt lat="44.78088" lon="1.70909">
        <ele>301.99</ele>
        <time>2020-07-14T07:03:30Z</time>
      </trkpt>
      <trkpt lat="44.78073" lon="1.70895">
        <ele>302.95</ele>
        <time>2020-07-14T07:03:51Z</time>
      </trkpt>
      <trkpt lat="44.78056" lon="1.70881">
        <ele>305.36</ele>
        <time>2020-07-14T07:04:14Z</time>
      </trkpt>
      <trkpt lat="44.78032" lon="1.70883">
        <ele>307.28</ele>
        <time>2020-07-14T07:04:41Z</time>
      </trkpt>
      <trkpt lat="44.78034" lon="1.70904">
        <ele>309.68</ele>
        <time>2020-07-14T07:05:01Z</time>
      </trkpt>
      <trkpt lat="44.7803" lon="1.70934">
        <ele>311.12</ele>
        <time>2020-07-14T07:05:22Z</time>
      </trkpt>
      <trkpt lat="44.78013" lon="1.70929">
        <ele>312.09</ele>
        <time>2020-07-14T07:05:39Z</time>
      </trkpt>
      <trkpt lat="44.77997" lon="1.70916">
        <ele>312.09</ele>
        <time>2020-07-14T07:05:56Z</time>
      </trkpt>
      <trkpt lat="44.77996" lon="1.70917">
        <ele>312.09</ele>
        <time>2020-07-14T07:06:12Z</time>
      </trkpt>
      <trkpt lat="44.77996" lon="1.70919">
        <ele>312.57</ele>
        <time>2020-07-14T07:06:33Z</time>
      </trkpt>
      <trkpt lat="44.77998" lon="1.70914">
        <ele>311.6</ele>
        <time>2020-07-14T07:07:00Z</time>
      </trkpt>
      <trkpt lat="44.78016" lon="1.70922">
        <ele>311.12</ele>
        <time>2020-07-14T07:07:19Z</time>
      </trkpt>
      <trkpt lat="44.78011" lon="1.7089">
        <ele>309.2</ele>
        <time>2020-07-14T07:07:37Z</time>
      </trkpt>
      <trkpt lat="44.78009" lon="1.70866">
        <ele>309.68</ele>
        <time>2020-07-14T07:07:54Z</time>
      </trkpt>
      <trkpt lat="44.78006" lon="1.7083">
        <ele>310.16</ele>
        <time>2020-07-14T07:08:13Z</time>
      </trkpt>
      <trkpt lat="44.77998" lon="1.70792">
        <ele>310.64</ele>
        <time>2020-07-14T07:08:37Z</time>
      </trkpt>
      <trkpt lat="44.77986" lon="1.7076">
        <ele>311.6</ele>
        <time>2020-07-14T07:09:00Z</time>
      </trkpt>
      <trkpt lat="44.77982" lon="1.70728">
        <ele>312.09</ele>
        <time>2020-07-14T07:09:21Z</time>
      </trkpt>
      <trkpt lat="44.77983" lon="1.70722">
        <ele>310.64</ele>
        <time>2020-07-14T07:09:24Z</time>
      </trkpt>
      <trkpt lat="44.77979" lon="1.70703">
        <ele>310.64</ele>
        <time>2020-07-14T07:09:36Z</time>
      </trkpt>
      <trkpt lat="44.77988" lon="1.70662">
        <ele>310.16</ele>
        <time>2020-07-14T07:10:01Z</time>
      </trkpt>
      <trkpt lat="44.77989" lon="1.70629">
        <ele>310.16</ele>
        <time>2020-07-14T07:10:22Z</time>
      </trkpt>
      <trkpt lat="44.77983" lon="1.706">
        <ele>309.68</ele>
        <time>2020-07-14T07:10:41Z</time>
      </trkpt>
      <trkpt lat="44.77977" lon="1.7057">
        <ele>309.2</ele>
        <time>2020-07-14T07:11:01Z</time>
      </trkpt>
      <trkpt lat="44.77975" lon="1.70536">
        <ele>308.72</ele>
        <time>2020-07-14T07:11:23Z</time>
      </trkpt>
      <trkpt lat="44.77963" lon="1.70511">
        <ele>308.24</ele>
        <time>2020-07-14T07:11:43Z</time>
      </trkpt>
      <trkpt lat="44.7795" lon="1.70479">
        <ele>309.2</ele>
        <time>2020-07-14T07:12:08Z</time>
      </trkpt>
      <trkpt lat="44.77952" lon="1.70449">
        <ele>309.68</ele>
        <time>2020-07-14T07:12:30Z</time>
      </trkpt>
      <trkpt lat="44.77957" lon="1.70408">
        <ele>310.16</ele>
        <time>2020-07-14T07:12:56Z</time>
      </trkpt>
      <trkpt lat="44.77953" lon="1.70373">
        <ele>311.12</ele>
        <time>2020-07-14T07:13:18Z</time>
      </trkpt>
      <trkpt lat="44.77953" lon="1.70344">
        <ele>311.12</ele>
        <time>2020-07-14T07:13:40Z</time>
      </trkpt>
      <trkpt lat="44.77949" lon="1.70318">
        <ele>312.09</ele>
        <time>2020-07-14T07:14:01Z</time>
      </trkpt>
      <trkpt lat="44.7794" lon="1.70288">
        <ele>313.53</ele>
        <time>2020-07-14T07:14:24Z</time>
      </trkpt>
      <trkpt lat="44.77942" lon="1.70266">
        <ele>313.53</ele>
        <time>2020-07-14T07:14:40Z</time>
      </trkpt>
      <trkpt lat="44.77935" lon="1.70242">
        <ele>314.01</ele>
        <time>2020-07-14T07:14:59Z</time>
      </trkpt>
      <trkpt lat="44.77922" lon="1.7021">
        <ele>314.97</ele>
        <time>2020-07-14T07:15:19Z</time>
      </trkpt>
      <trkpt lat="44.77907" lon="1.70187">
        <ele>315.45</ele>
        <time>2020-07-14T07:15:38Z</time>
      </trkpt>
      <trkpt lat="44.77896" lon="1.70168">
        <ele>315.93</ele>
        <time>2020-07-14T07:15:55Z</time>
      </trkpt>
      <trkpt lat="44.77893" lon="1.70165">
        <ele>314.49</ele>
        <time>2020-07-14T07:15:58Z</time>
      </trkpt>
      <trkpt lat="44.77875" lon="1.70141">
        <ele>313.53</ele>
        <time>2020-07-14T07:16:22Z</time>
      </trkpt>
      <trkpt lat="44.77872" lon="1.70118">
        <ele>314.49</ele>
        <time>2020-07-14T07:16:37Z</time>
      </trkpt>
      <trkpt lat="44.77866" lon="1.70093">
        <ele>314.49</ele>
        <time>2020-07-14T07:16:55Z</time>
      </trkpt>
      <trkpt lat="44.77853" lon="1.70068">
        <ele>314.01</ele>
        <time>2020-07-14T07:17:13Z</time>
      </trkpt>
      <trkpt lat="44.77851" lon="1.70049">
        <ele>314.01</ele>
        <time>2020-07-14T07:17:30Z</time>
      </trkpt>
      <trkpt lat="44.77855" lon="1.70057">
        <ele>313.05</ele>
        <time>2020-07-14T07:17:49Z</time>
      </trkpt>
      <trkpt lat="44.77857" lon="1.70053">
        <ele>312.57</ele>
        <time>2020-07-14T07:18:09Z</time>
      </trkpt>
      <trkpt lat="44.77856" lon="1.70049">
        <ele>312.57</ele>
        <time>2020-07-14T07:18:36Z</time>
      </trkpt>
      <trkpt lat="44.77855" lon="1.70049">
        <ele>312.57</ele>
        <time>2020-07-14T07:19:04Z</time>
      </trkpt>
      <trkpt lat="44.77855" lon="1.70049">
        <ele>312.57</ele>
        <time>2020-07-14T07:19:35Z</time>
      </trkpt>
      <trkpt lat="44.77853" lon="1.70047">
        <ele>311.6</ele>
        <time>2020-07-14T07:19:53Z</time>
      </trkpt>
      <trkpt lat="44.77858" lon="1.70014">
        <ele>313.05</ele>
        <time>2020-07-14T07:20:13Z</time>
      </trkpt>
      <trkpt lat="44.77862" lon="1.70006">
        <ele>311.12</ele>
        <time>2020-07-14T07:20:21Z</time>
      </trkpt>
      <trkpt lat="44.77881" lon="1.69978">
        <ele>310.64</ele>
        <time>2020-07-14T07:20:43Z</time>
      </trkpt>
      <trkpt lat="44.77898" lon="1.69959">
        <ele>310.16</ele>
        <time>2020-07-14T07:21:03Z</time>
      </trkpt>
      <trkpt lat="44.77915" lon="1.69929">
        <ele>310.64</ele>
        <time>2020-07-14T07:21:27Z</time>
      </trkpt>
      <trkpt lat="44.77921" lon="1.69901">
        <ele>309.2</ele>
        <time>2020-07-14T07:21:43Z</time>
      </trkpt>
      <trkpt lat="44.77928" lon="1.69893">
        <ele>309.2</ele>
        <time>2020-07-14T07:22:02Z</time>
      </trkpt>
      <trkpt lat="44.77936" lon="1.69874">
        <ele>310.16</ele>
        <time>2020-07-14T07:22:27Z</time>
      </trkpt>
      <trkpt lat="44.77936" lon="1.69872">
        <ele>310.16</ele>
        <time>2020-07-14T07:22:28Z</time>
      </trkpt>
      <trkpt lat="44.77943" lon="1.69863">
        <ele>310.16</ele>
        <time>2020-07-14T07:22:45Z</time>
      </trkpt>
      <trkpt lat="44.77945" lon="1.69855">
        <ele>308.72</ele>
        <time>2020-07-14T07:23:10Z</time>
      </trkpt>
      <trkpt lat="44.77953" lon="1.69823">
        <ele>308.72</ele>
        <time>2020-07-14T07:23:31Z</time>
      </trkpt>
      <trkpt lat="44.77955" lon="1.69811">
        <ele>308.72</ele>
        <time>2020-07-14T07:23:52Z</time>
      </trkpt>
      <trkpt lat="44.77953" lon="1.69808">
        <ele>308.72</ele>
        <time>2020-07-14T07:24:17Z</time>
      </trkpt>
      <trkpt lat="44.77959" lon="1.69788">
        <ele>308.24</ele>
        <time>2020-07-14T07:24:37Z</time>
      </trkpt>
      <trkpt lat="44.77966" lon="1.69766">
        <ele>308.72</ele>
        <time>2020-07-14T07:24:50Z</time>
      </trkpt>
      <trkpt lat="44.77976" lon="1.69742">
        <ele>307.28</ele>
        <time>2020-07-14T07:25:06Z</time>
      </trkpt>
      <trkpt lat="44.77987" lon="1.69714">
        <ele>306.8</ele>
        <time>2020-07-14T07:25:23Z</time>
      </trkpt>
      <trkpt lat="44.78002" lon="1.69686">
        <ele>307.76</ele>
        <time>2020-07-14T07:25:44Z</time>
      </trkpt>
      <trkpt lat="44.78013" lon="1.6966">
        <ele>305.36</ele>
        <time>2020-07-14T07:26:02Z</time>
      </trkpt>
      <trkpt lat="44.78023" lon="1.69643">
        <ele>306.32</ele>
        <time>2020-07-14T07:26:14Z</time>
      </trkpt>
      <trkpt lat="44.78039" lon="1.69609">
        <ele>303.91</ele>
        <time>2020-07-14T07:26:36Z</time>
      </trkpt>
      <trkpt lat="44.78048" lon="1.69592">
        <ele>304.39</ele>
        <time>2020-07-14T07:26:48Z</time>
      </trkpt>
      <trkpt lat="44.78052" lon="1.69582">
        <ele>305.84</ele>
        <time>2020-07-14T07:26:54Z</time>
      </trkpt>
      <trkpt lat="44.7806" lon="1.69565">
        <ele>305.84</ele>
        <time>2020-07-14T07:27:05Z</time>
      </trkpt>
      <trkpt lat="44.78071" lon="1.69543">
        <ele>304.39</ele>
        <time>2020-07-14T07:27:21Z</time>
      </trkpt>
      <trkpt lat="44.78073" lon="1.69536">
        <ele>305.36</ele>
        <time>2020-07-14T07:27:25Z</time>
      </trkpt>
      <trkpt lat="44.78087" lon="1.69504">
        <ele>305.84</ele>
        <time>2020-07-14T07:27:47Z</time>
      </trkpt>
      <trkpt lat="44.78092" lon="1.69467">
        <ele>305.84</ele>
        <time>2020-07-14T07:28:08Z</time>
      </trkpt>
      <trkpt lat="44.78095" lon="1.69435">
        <ele>306.8</ele>
        <time>2020-07-14T07:28:27Z</time>
      </trkpt>
      <trkpt lat="44.78109" lon="1.69404">
        <ele>308.72</ele>
        <time>2020-07-14T07:28:51Z</time>
      </trkpt>
      <trkpt lat="44.78114" lon="1.69398">
        <ele>308.72</ele>
        <time>2020-07-14T07:28:56Z</time>
      </trkpt>
      <trkpt lat="44.78116" lon="1.69393">
        <ele>308.72</ele>
        <time>2020-07-14T07:28:59Z</time>
      </trkpt>
      <trkpt lat="44.78131" lon="1.69362">
        <ele>308.72</ele>
        <time>2020-07-14T07:29:22Z</time>
      </trkpt>
      <trkpt lat="44.78138" lon="1.69338">
        <ele>307.76</ele>
        <time>2020-07-14T07:29:39Z</time>
      </trkpt>
      <trkpt lat="44.78148" lon="1.69319">
        <ele>307.76</ele>
        <time>2020-07-14T07:29:54Z</time>
      </trkpt>
      <trkpt lat="44.78161" lon="1.69309">
        <ele>307.28</ele>
        <time>2020-07-14T07:30:12Z</time>
      </trkpt>
      <trkpt lat="44.78173" lon="1.69292">
        <ele>306.32</ele>
        <time>2020-07-14T07:30:29Z</time>
      </trkpt>
      <trkpt lat="44.78175" lon="1.6929">
        <ele>307.76</ele>
        <time>2020-07-14T07:30:31Z</time>
      </trkpt>
      <trkpt lat="44.78178" lon="1.69283">
        <ele>306.32</ele>
        <time>2020-07-14T07:30:38Z</time>
      </trkpt>
      <trkpt lat="44.78186" lon="1.69247">
        <ele>305.84</ele>
        <time>2020-07-14T07:30:59Z</time>
      </trkpt>
      <trkpt lat="44.78191" lon="1.69212">
        <ele>304.88</ele>
        <time>2020-07-14T07:31:21Z</time>
      </trkpt>
      <trkpt lat="44.7819" lon="1.69183">
        <ele>304.39</ele>
        <time>2020-07-14T07:31:39Z</time>
      </trkpt>
      <trkpt lat="44.78187" lon="1.69154">
        <ele>302.95</ele>
        <time>2020-07-14T07:31:56Z</time>
      </trkpt>
      <trkpt lat="44.78184" lon="1.69128">
        <ele>301.99</ele>
        <time>2020-07-14T07:32:12Z</time>
      </trkpt>
      <trkpt lat="44.78181" lon="1.69111">
        <ele>301.51</ele>
        <time>2020-07-14T07:32:22Z</time>
      </trkpt>
      <trkpt lat="44.78185" lon="1.69074">
        <ele>301.51</ele>
        <time>2020-07-14T07:32:44Z</time>
      </trkpt>
      <trkpt lat="44.78188" lon="1.69043">
        <ele>302.47</ele>
        <time>2020-07-14T07:33:04Z</time>
      </trkpt>
      <trkpt lat="44.78191" lon="1.69014">
        <ele>302.95</ele>
        <time>2020-07-14T07:33:22Z</time>
      </trkpt>
      <trkpt lat="44.78198" lon="1.68988">
        <ele>304.88</ele>
        <time>2020-07-14T07:33:43Z</time>
      </trkpt>
      <trkpt lat="44.7822" lon="1.68979">
        <ele>305.84</ele>
        <time>2020-07-14T07:34:05Z</time>
      </trkpt>
      <trkpt lat="44.7824" lon="1.6897">
        <ele>306.8</ele>
        <time>2020-07-14T07:34:24Z</time>
      </trkpt>
      <trkpt lat="44.78258" lon="1.6895">
        <ele>307.76</ele>
        <time>2020-07-14T07:34:46Z</time>
      </trkpt>
      <trkpt lat="44.78263" lon="1.68936">
        <ele>310.16</ele>
        <time>2020-07-14T07:34:58Z</time>
      </trkpt>
      <trkpt lat="44.78266" lon="1.68935">
        <ele>308.24</ele>
        <time>2020-07-14T07:35:01Z</time>
      </trkpt>
      <trkpt lat="44.78284" lon="1.68928">
        <ele>309.68</ele>
        <time>2020-07-14T07:35:17Z</time>
      </trkpt>
      <trkpt lat="44.78292" lon="1.68923">
        <ele>310.16</ele>
        <time>2020-07-14T07:35:36Z</time>
      </trkpt>
      <trkpt lat="44.78296" lon="1.68914">
        <ele>310.16</ele>
        <time>2020-07-14T07:35:59Z</time>
      </trkpt>
      <trkpt lat="44.78312" lon="1.68903">
        <ele>311.12</ele>
        <time>2020-07-14T07:36:21Z</time>
      </trkpt>
      <trkpt lat="44.78317" lon="1.68902">
        <ele>311.12</ele>
        <time>2020-07-14T07:36:49Z</time>
      </trkpt>
      <trkpt lat="44.78331" lon="1.68889">
        <ele>311.6</ele>
        <time>2020-07-14T07:37:10Z</time>
      </trkpt>
      <trkpt lat="44.78347" lon="1.68872">
        <ele>313.05</ele>
        <time>2020-07-14T07:37:32Z</time>
      </trkpt>
      <trkpt lat="44.78358" lon="1.68851">
        <ele>314.01</ele>
        <time>2020-07-14T07:37:50Z</time>
      </trkpt>
      <trkpt lat="44.78363" lon="1.68837">
        <ele>314.49</ele>
        <time>2020-07-14T07:38:01Z</time>
      </trkpt>
      <trkpt lat="44.78368" lon="1.68813">
        <ele>314.97</ele>
        <time>2020-07-14T07:38:17Z</time>
      </trkpt>
      <trkpt lat="44.78366" lon="1.68802">
        <ele>314.97</ele>
        <time>2020-07-14T07:38:24Z</time>
      </trkpt>
      <trkpt lat="44.78357" lon="1.68789">
        <ele>315.45</ele>
        <time>2020-07-14T07:38:44Z</time>
      </trkpt>
      <trkpt lat="44.78356" lon="1.6879">
        <ele>316.41</ele>
        <time>2020-07-14T07:39:07Z</time>
      </trkpt>
      <trkpt lat="44.78352" lon="1.68776">
        <ele>314.97</ele>
        <time>2020-07-14T07:39:23Z</time>
      </trkpt>
      <trkpt lat="44.78343" lon="1.68749">
        <ele>314.49</ele>
        <time>2020-07-14T07:39:43Z</time>
      </trkpt>
      <trkpt lat="44.78342" lon="1.68744">
        <ele>314.49</ele>
        <time>2020-07-14T07:39:46Z</time>
      </trkpt>
      <trkpt lat="44.78338" lon="1.68712">
        <ele>314.49</ele>
        <time>2020-07-14T07:40:04Z</time>
      </trkpt>
      <trkpt lat="44.78346" lon="1.6869">
        <ele>314.49</ele>
        <time>2020-07-14T07:40:18Z</time>
      </trkpt>
      <trkpt lat="44.78348" lon="1.68689">
        <ele>314.49</ele>
        <time>2020-07-14T07:40:20Z</time>
      </trkpt>
      <trkpt lat="44.78371" lon="1.68684">
        <ele>317.37</ele>
        <time>2020-07-14T07:40:41Z</time>
      </trkpt>
      <trkpt lat="44.78388" lon="1.68681">
        <ele>318.81</ele>
        <time>2020-07-14T07:40:59Z</time>
      </trkpt>
      <trkpt lat="44.78395" lon="1.68678">
        <ele>319.3</ele>
        <time>2020-07-14T07:41:05Z</time>
      </trkpt>
      <trkpt lat="44.78413" lon="1.68672">
        <ele>319.78</ele>
        <time>2020-07-14T07:41:22Z</time>
      </trkpt>
      <trkpt lat="44.78425" lon="1.68671">
        <ele>321.22</ele>
        <time>2020-07-14T07:41:39Z</time>
      </trkpt>
      <trkpt lat="44.78449" lon="1.68676">
        <ele>322.18</ele>
        <time>2020-07-14T07:42:00Z</time>
      </trkpt>
      <trkpt lat="44.78462" lon="1.68666">
        <ele>322.66</ele>
        <time>2020-07-14T07:42:16Z</time>
      </trkpt>
      <trkpt lat="44.78475" lon="1.68654">
        <ele>323.14</ele>
        <time>2020-07-14T07:42:33Z</time>
      </trkpt>
      <trkpt lat="44.78477" lon="1.6865">
        <ele>323.14</ele>
        <time>2020-07-14T07:42:38Z</time>
      </trkpt>
      <trkpt lat="44.78478" lon="1.68644">
        <ele>322.66</ele>
        <time>2020-07-14T07:42:42Z</time>
      </trkpt>
      <trkpt lat="44.78481" lon="1.68636">
        <ele>323.62</ele>
        <time>2020-07-14T07:42:50Z</time>
      </trkpt>
      <trkpt lat="44.78482" lon="1.68635">
        <ele>323.62</ele>
        <time>2020-07-14T07:42:51Z</time>
      </trkpt>
      <trkpt lat="44.78488" lon="1.68621">
        <ele>323.62</ele>
        <time>2020-07-14T07:43:02Z</time>
      </trkpt>
      <trkpt lat="44.78497" lon="1.68609">
        <ele>324.1</ele>
        <time>2020-07-14T07:43:13Z</time>
      </trkpt>
      <trkpt lat="44.78519" lon="1.68589">
        <ele>324.58</ele>
        <time>2020-07-14T07:43:35Z</time>
      </trkpt>
      <trkpt lat="44.78534" lon="1.68574">
        <ele>324.58</ele>
        <time>2020-07-14T07:43:52Z</time>
      </trkpt>
      <trkpt lat="44.78543" lon="1.68565">
        <ele>324.58</ele>
        <time>2020-07-14T07:44:03Z</time>
      </trkpt>
      <trkpt lat="44.78548" lon="1.6856">
        <ele>324.1</ele>
        <time>2020-07-14T07:44:09Z</time>
      </trkpt>
      <trkpt lat="44.78567" lon="1.68539">
        <ele>325.06</ele>
        <time>2020-07-14T07:44:28Z</time>
      </trkpt>
      <trkpt lat="44.78577" lon="1.68535">
        <ele>324.58</ele>
        <time>2020-07-14T07:44:44Z</time>
      </trkpt>
      <trkpt lat="44.7858" lon="1.68525">
        <ele>324.58</ele>
        <time>2020-07-14T07:44:59Z</time>
      </trkpt>
      <trkpt lat="44.78595" lon="1.68507">
        <ele>324.58</ele>
        <time>2020-07-14T07:45:16Z</time>
      </trkpt>
      <trkpt lat="44.78599" lon="1.68499">
        <ele>324.58</ele>
        <time>2020-07-14T07:45:21Z</time>
      </trkpt>
      <trkpt lat="44.78607" lon="1.68473">
        <ele>323.62</ele>
        <time>2020-07-14T07:45:38Z</time>
      </trkpt>
      <trkpt lat="44.78612" lon="1.68465">
        <ele>324.1</ele>
        <time>2020-07-14T07:45:44Z</time>
      </trkpt>
      <trkpt lat="44.78622" lon="1.68447">
        <ele>324.1</ele>
        <time>2020-07-14T07:46:00Z</time>
      </trkpt>
      <trkpt lat="44.78637" lon="1.68419">
        <ele>324.1</ele>
        <time>2020-07-14T07:46:19Z</time>
      </trkpt>
      <trkpt lat="44.78639" lon="1.6841">
        <ele>322.66</ele>
        <time>2020-07-14T07:46:25Z</time>
      </trkpt>
      <trkpt lat="44.78639" lon="1.68406">
        <ele>321.7</ele>
        <time>2020-07-14T07:46:27Z</time>
      </trkpt>
      <trkpt lat="44.78641" lon="1.68398">
        <ele>323.62</ele>
        <time>2020-07-14T07:46:31Z</time>
      </trkpt>
      <trkpt lat="44.78644" lon="1.68388">
        <ele>323.14</ele>
        <time>2020-07-14T07:46:37Z</time>
      </trkpt>
      <trkpt lat="44.78647" lon="1.68374">
        <ele>323.14</ele>
        <time>2020-07-14T07:46:45Z</time>
      </trkpt>
      <trkpt lat="44.78648" lon="1.68369">
        <ele>321.7</ele>
        <time>2020-07-14T07:46:48Z</time>
      </trkpt>
      <trkpt lat="44.78649" lon="1.68366">
        <ele>323.14</ele>
        <time>2020-07-14T07:46:50Z</time>
      </trkpt>
      <trkpt lat="44.78654" lon="1.68329">
        <ele>321.22</ele>
        <time>2020-07-14T07:47:11Z</time>
      </trkpt>
      <trkpt lat="44.78659" lon="1.68304">
        <ele>319.78</ele>
        <time>2020-07-14T07:47:23Z</time>
      </trkpt>
      <trkpt lat="44.78662" lon="1.68278">
        <ele>320.26</ele>
        <time>2020-07-14T07:47:38Z</time>
      </trkpt>
      <trkpt lat="44.78661" lon="1.68245">
        <ele>318.81</ele>
        <time>2020-07-14T07:47:57Z</time>
      </trkpt>
      <trkpt lat="44.78663" lon="1.68204">
        <ele>317.37</ele>
        <time>2020-07-14T07:48:17Z</time>
      </trkpt>
      <trkpt lat="44.7867" lon="1.68167">
        <ele>315.93</ele>
        <time>2020-07-14T07:48:38Z</time>
      </trkpt>
      <trkpt lat="44.78674" lon="1.68147">
        <ele>315.45</ele>
        <time>2020-07-14T07:48:51Z</time>
      </trkpt>
      <trkpt lat="44.7868" lon="1.68121">
        <ele>316.41</ele>
        <time>2020-07-14T07:49:10Z</time>
      </trkpt>
      <trkpt lat="44.78683" lon="1.68106">
        <ele>316.41</ele>
        <time>2020-07-14T07:49:21Z</time>
      </trkpt>
      <trkpt lat="44.78686" lon="1.68093">
        <ele>314.97</ele>
        <time>2020-07-14T07:49:28Z</time>
      </trkpt>
      <trkpt lat="44.78688" lon="1.68076">
        <ele>316.41</ele>
        <time>2020-07-14T07:49:37Z</time>
      </trkpt>
      <trkpt lat="44.78688" lon="1.68067">
        <ele>316.41</ele>
        <time>2020-07-14T07:49:44Z</time>
      </trkpt>
      <trkpt lat="44.78687" lon="1.68059">
        <ele>314.49</ele>
        <time>2020-07-14T07:49:48Z</time>
      </trkpt>
      <trkpt lat="44.78687" lon="1.68057">
        <ele>314.49</ele>
        <time>2020-07-14T07:49:49Z</time>
      </trkpt>
      <trkpt lat="44.78687" lon="1.6805">
        <ele>314.01</ele>
        <time>2020-07-14T07:49:53Z</time>
      </trkpt>
      <trkpt lat="44.78686" lon="1.68042">
        <ele>315.45</ele>
        <time>2020-07-14T07:49:57Z</time>
      </trkpt>
      <trkpt lat="44.78684" lon="1.6803">
        <ele>313.05</ele>
        <time>2020-07-14T07:50:04Z</time>
      </trkpt>
      <trkpt lat="44.78683" lon="1.68027">
        <ele>314.49</ele>
        <time>2020-07-14T07:50:06Z</time>
      </trkpt>
      <trkpt lat="44.78681" lon="1.68004">
        <ele>314.01</ele>
        <time>2020-07-14T07:50:22Z</time>
      </trkpt>
      <trkpt lat="44.78681" lon="1.67985">
        <ele>311.6</ele>
        <time>2020-07-14T07:50:32Z</time>
      </trkpt>
      <trkpt lat="44.78685" lon="1.67949">
        <ele>309.2</ele>
        <time>2020-07-14T07:50:52Z</time>
      </trkpt>
      <trkpt lat="44.78686" lon="1.67947">
        <ele>309.2</ele>
        <time>2020-07-14T07:50:53Z</time>
      </trkpt>
      <trkpt lat="44.78687" lon="1.67943">
        <ele>310.64</ele>
        <time>2020-07-14T07:50:56Z</time>
      </trkpt>
      <trkpt lat="44.78689" lon="1.67935">
        <ele>309.2</ele>
        <time>2020-07-14T07:51:00Z</time>
      </trkpt>
      <trkpt lat="44.78699" lon="1.6791">
        <ele>308.24</ele>
        <time>2020-07-14T07:51:16Z</time>
      </trkpt>
      <trkpt lat="44.78705" lon="1.67895">
        <ele>307.28</ele>
        <time>2020-07-14T07:51:26Z</time>
      </trkpt>
      <trkpt lat="44.78717" lon="1.67867">
        <ele>305.36</ele>
        <time>2020-07-14T07:51:45Z</time>
      </trkpt>
      <trkpt lat="44.7872" lon="1.6786">
        <ele>303.91</ele>
        <time>2020-07-14T07:51:49Z</time>
      </trkpt>
      <trkpt lat="44.78726" lon="1.67834">
        <ele>302.95</ele>
        <time>2020-07-14T07:52:06Z</time>
      </trkpt>
      <trkpt lat="44.78728" lon="1.67812">
        <ele>301.99</ele>
        <time>2020-07-14T07:52:21Z</time>
      </trkpt>
      <trkpt lat="44.78727" lon="1.67803">
        <ele>300.55</ele>
        <time>2020-07-14T07:52:26Z</time>
      </trkpt>
      <trkpt lat="44.78722" lon="1.67784">
        <ele>299.59</ele>
        <time>2020-07-14T07:52:40Z</time>
      </trkpt>
      <trkpt lat="44.78719" lon="1.67775">
        <ele>298.15</ele>
        <time>2020-07-14T07:52:47Z</time>
      </trkpt>
      <trkpt lat="44.78718" lon="1.6777">
        <ele>299.59</ele>
        <time>2020-07-14T07:52:50Z</time>
      </trkpt>
      <trkpt lat="44.78718" lon="1.67767">
        <ele>298.15</ele>
        <time>2020-07-14T07:52:52Z</time>
      </trkpt>
      <trkpt lat="44.78716" lon="1.67744">
        <ele>297.18</ele>
        <time>2020-07-14T07:53:07Z</time>
      </trkpt>
      <trkpt lat="44.78714" lon="1.67716">
        <ele>295.26</ele>
        <time>2020-07-14T07:53:24Z</time>
      </trkpt>
      <trkpt lat="44.78714" lon="1.67693">
        <ele>295.26</ele>
        <time>2020-07-14T07:53:39Z</time>
      </trkpt>
      <trkpt lat="44.78717" lon="1.67667">
        <ele>296.22</ele>
        <time>2020-07-14T07:53:55Z</time>
      </trkpt>
      <trkpt lat="44.78724" lon="1.67642">
        <ele>295.26</ele>
        <time>2020-07-14T07:54:06Z</time>
      </trkpt>
      <trkpt lat="44.78736" lon="1.67609">
        <ele>294.78</ele>
        <time>2020-07-14T07:54:27Z</time>
      </trkpt>
      <trkpt lat="44.78745" lon="1.67583">
        <ele>293.82</ele>
        <time>2020-07-14T07:54:45Z</time>
      </trkpt>
      <trkpt lat="44.78756" lon="1.67554">
        <ele>293.82</ele>
        <time>2020-07-14T07:55:05Z</time>
      </trkpt>
      <trkpt lat="44.7876" lon="1.67541">
        <ele>291.9</ele>
        <time>2020-07-14T07:55:14Z</time>
      </trkpt>
      <trkpt lat="44.78767" lon="1.6752">
        <ele>290.94</ele>
        <time>2020-07-14T07:55:29Z</time>
      </trkpt>
      <trkpt lat="44.7877" lon="1.67511">
        <ele>289.49</ele>
        <time>2020-07-14T07:55:34Z</time>
      </trkpt>
      <trkpt lat="44.78774" lon="1.67487">
        <ele>288.05</ele>
        <time>2020-07-14T07:55:50Z</time>
      </trkpt>
      <trkpt lat="44.78776" lon="1.67466">
        <ele>288.53</ele>
        <time>2020-07-14T07:56:03Z</time>
      </trkpt>
      <trkpt lat="44.78779" lon="1.67439">
        <ele>286.61</ele>
        <time>2020-07-14T07:56:20Z</time>
      </trkpt>
      <trkpt lat="44.7878" lon="1.6742">
        <ele>285.65</ele>
        <time>2020-07-14T07:56:31Z</time>
      </trkpt>
      <trkpt lat="44.78779" lon="1.67416">
        <ele>285.17</ele>
        <time>2020-07-14T07:56:34Z</time>
      </trkpt>
      <trkpt lat="44.7878" lon="1.67408">
        <ele>285.17</ele>
        <time>2020-07-14T07:56:38Z</time>
      </trkpt>
      <trkpt lat="44.78784" lon="1.67381">
        <ele>285.17</ele>
        <time>2020-07-14T07:56:54Z</time>
      </trkpt>
      <trkpt lat="44.788" lon="1.67357">
        <ele>285.65</ele>
        <time>2020-07-14T07:57:14Z</time>
      </trkpt>
      <trkpt lat="44.78807" lon="1.6735">
        <ele>285.65</ele>
        <time>2020-07-14T07:57:28Z</time>
      </trkpt>
      <trkpt lat="44.7882" lon="1.67343">
        <ele>284.69</ele>
        <time>2020-07-14T07:57:40Z</time>
      </trkpt>
      <trkpt lat="44.78842" lon="1.67343">
        <ele>281.32</ele>
        <time>2020-07-14T07:57:59Z</time>
      </trkpt>
      <trkpt lat="44.78857" lon="1.67344">
        <ele>278.44</ele>
        <time>2020-07-14T07:58:15Z</time>
      </trkpt>
      <trkpt lat="44.78874" lon="1.67343">
        <ele>277</ele>
        <time>2020-07-14T07:58:35Z</time>
      </trkpt>
      <trkpt lat="44.78877" lon="1.67343">
        <ele>277</ele>
        <time>2020-07-14T07:59:00Z</time>
      </trkpt>
      <trkpt lat="44.78875" lon="1.67349">
        <ele>277</ele>
        <time>2020-07-14T07:59:24Z</time>
      </trkpt>
      <trkpt lat="44.78874" lon="1.67351">
        <ele>277</ele>
        <time>2020-07-14T07:59:57Z</time>
      </trkpt>
      <trkpt lat="44.78876" lon="1.67345">
        <ele>277</ele>
        <time>2020-07-14T08:00:28Z</time>
      </trkpt>
      <trkpt lat="44.78876" lon="1.67346">
        <ele>277</ele>
        <time>2020-07-14T08:00:58Z</time>
      </trkpt>
      <trkpt lat="44.78875" lon="1.6734">
        <ele>277</ele>
        <time>2020-07-14T08:01:21Z</time>
      </trkpt>
      <trkpt lat="44.7887" lon="1.67334">
        <ele>276.52</ele>
        <time>2020-07-14T08:01:50Z</time>
      </trkpt>
      <trkpt lat="44.78876" lon="1.6735">
        <ele>276.52</ele>
        <time>2020-07-14T08:02:17Z</time>
      </trkpt>
      <trkpt lat="44.78872" lon="1.67348">
        <ele>276.52</ele>
        <time>2020-07-14T08:02:42Z</time>
      </trkpt>
      <trkpt lat="44.78871" lon="1.67343">
        <ele>276.52</ele>
        <time>2020-07-14T08:03:18Z</time>
      </trkpt>
      <trkpt lat="44.78867" lon="1.67339">
        <ele>276.52</ele>
        <time>2020-07-14T08:03:41Z</time>
      </trkpt>
      <trkpt lat="44.78865" lon="1.6733">
        <ele>276.52</ele>
        <time>2020-07-14T08:04:12Z</time>
      </trkpt>
      <trkpt lat="44.7887" lon="1.6735">
        <ele>276.52</ele>
        <time>2020-07-14T08:04:35Z</time>
      </trkpt>
      <trkpt lat="44.78886" lon="1.67357">
        <ele>274.59</ele>
        <time>2020-07-14T08:04:53Z</time>
      </trkpt>
      <trkpt lat="44.78904" lon="1.67342">
        <ele>272.19</ele>
        <time>2020-07-14T08:05:15Z</time>
      </trkpt>
      <trkpt lat="44.78912" lon="1.67338">
        <ele>269.79</ele>
        <time>2020-07-14T08:05:37Z</time>
      </trkpt>
      <trkpt lat="44.78913" lon="1.67365">
        <ele>266.9</ele>
        <time>2020-07-14T08:05:55Z</time>
      </trkpt>
      <trkpt lat="44.78916" lon="1.67373">
        <ele>265.94</ele>
        <time>2020-07-14T08:06:16Z</time>
      </trkpt>
      <trkpt lat="44.78904" lon="1.67385">
        <ele>265.94</ele>
        <time>2020-07-14T08:06:32Z</time>
      </trkpt>
      <trkpt lat="44.78896" lon="1.67411">
        <ele>264.5</ele>
        <time>2020-07-14T08:06:53Z</time>
      </trkpt>
      <trkpt lat="44.7889" lon="1.67435">
        <ele>262.1</ele>
        <time>2020-07-14T08:07:16Z</time>
      </trkpt>
      <trkpt lat="44.78883" lon="1.67451">
        <ele>258.73</ele>
        <time>2020-07-14T08:07:38Z</time>
      </trkpt>
      <trkpt lat="44.78905" lon="1.67442">
        <ele>255.37</ele>
        <time>2020-07-14T08:07:58Z</time>
      </trkpt>
      <trkpt lat="44.78914" lon="1.67459">
        <ele>252.96</ele>
        <time>2020-07-14T08:08:19Z</time>
      </trkpt>
      <trkpt lat="44.78928" lon="1.67457">
        <ele>251.04</ele>
        <time>2020-07-14T08:08:39Z</time>
      </trkpt>
      <trkpt lat="44.78926" lon="1.67449">
        <ele>249.12</ele>
        <time>2020-07-14T08:08:59Z</time>
      </trkpt>
      <trkpt lat="44.78921" lon="1.67439">
        <ele>247.2</ele>
        <time>2020-07-14T08:09:11Z</time>
      </trkpt>
      <trkpt lat="44.78928" lon="1.6742">
        <ele>244.79</ele>
        <time>2020-07-14T08:09:29Z</time>
      </trkpt>
      <trkpt lat="44.78933" lon="1.6741">
        <ele>241.43</ele>
        <time>2020-07-14T08:09:45Z</time>
      </trkpt>
      <trkpt lat="44.78938" lon="1.67386">
        <ele>238.06</ele>
        <time>2020-07-14T08:10:04Z</time>
      </trkpt>
      <trkpt lat="44.78942" lon="1.67366">
        <ele>236.14</ele>
        <time>2020-07-14T08:10:22Z</time>
      </trkpt>
      <trkpt lat="44.78948" lon="1.67349">
        <ele>233.26</ele>
        <time>2020-07-14T08:10:44Z</time>
      </trkpt>
      <trkpt lat="44.78961" lon="1.67332">
        <ele>231.81</ele>
        <time>2020-07-14T08:11:05Z</time>
      </trkpt>
      <trkpt lat="44.78964" lon="1.67334">
        <ele>232.3</ele>
        <time>2020-07-14T08:11:30Z</time>
      </trkpt>
      <trkpt lat="44.78945" lon="1.67347">
        <ele>232.3</ele>
        <time>2020-07-14T08:11:55Z</time>
      </trkpt>
      <trkpt lat="44.78941" lon="1.67345">
        <ele>231.81</ele>
        <time>2020-07-14T08:12:18Z</time>
      </trkpt>
      <trkpt lat="44.78961" lon="1.67335">
        <ele>231.81</ele>
        <time>2020-07-14T08:12:42Z</time>
      </trkpt>
      <trkpt lat="44.78962" lon="1.67328">
        <ele>231.33</ele>
        <time>2020-07-14T08:13:03Z</time>
      </trkpt>
      <trkpt lat="44.78961" lon="1.67323">
        <ele>231.33</ele>
        <time>2020-07-14T08:13:21Z</time>
      </trkpt>
      <trkpt lat="44.78964" lon="1.67326">
        <ele>232.3</ele>
        <time>2020-07-14T08:17:09Z</time>
      </trkpt>
      <trkpt lat="44.78962" lon="1.67324">
        <ele>232.3</ele>
        <time>2020-07-14T08:17:31Z</time>
      </trkpt>
      <trkpt lat="44.78966" lon="1.67307">
        <ele>232.3</ele>
        <time>2020-07-14T08:17:48Z</time>
      </trkpt>
      <trkpt lat="44.7897" lon="1.67282">
        <ele>233.26</ele>
        <time>2020-07-14T08:18:09Z</time>
      </trkpt>
      <trkpt lat="44.78972" lon="1.67254">
        <ele>234.7</ele>
        <time>2020-07-14T08:18:32Z</time>
      </trkpt>
      <trkpt lat="44.78977" lon="1.67231">
        <ele>236.62</ele>
        <time>2020-07-14T08:18:53Z</time>
      </trkpt>
      <trkpt lat="44.7898" lon="1.67217">
        <ele>238.06</ele>
        <time>2020-07-14T08:19:15Z</time>
      </trkpt>
      <trkpt lat="44.78986" lon="1.67212">
        <ele>238.06</ele>
        <time>2020-07-14T08:19:43Z</time>
      </trkpt>
      <trkpt lat="44.78985" lon="1.67209">
        <ele>236.62</ele>
        <time>2020-07-14T08:20:14Z</time>
      </trkpt>
      <trkpt lat="44.78983" lon="1.67197">
        <ele>235.18</ele>
        <time>2020-07-14T08:20:32Z</time>
      </trkpt>
      <trkpt lat="44.78982" lon="1.67182">
        <ele>232.78</ele>
        <time>2020-07-14T08:20:44Z</time>
      </trkpt>
      <trkpt lat="44.78982" lon="1.67169">
        <ele>231.33</ele>
        <time>2020-07-14T08:20:53Z</time>
      </trkpt>
      <trkpt lat="44.78985" lon="1.67142">
        <ele>231.33</ele>
        <time>2020-07-14T08:21:13Z</time>
      </trkpt>
      <trkpt lat="44.78989" lon="1.67111">
        <ele>228.93</ele>
        <time>2020-07-14T08:21:30Z</time>
      </trkpt>
      <trkpt lat="44.7899" lon="1.67103">
        <ele>230.37</ele>
        <time>2020-07-14T08:21:34Z</time>
      </trkpt>
      <trkpt lat="44.7899" lon="1.671">
        <ele>229.41</ele>
        <time>2020-07-14T08:21:36Z</time>
      </trkpt>
      <trkpt lat="44.79" lon="1.67069">
        <ele>229.41</ele>
        <time>2020-07-14T08:21:57Z</time>
      </trkpt>
      <trkpt lat="44.79002" lon="1.67063">
        <ele>227.97</ele>
        <time>2020-07-14T08:22:03Z</time>
      </trkpt>
      <trkpt lat="44.78993" lon="1.67031">
        <ele>227.01</ele>
        <time>2020-07-14T08:22:25Z</time>
      </trkpt>
      <trkpt lat="44.78998" lon="1.67001">
        <ele>227.01</ele>
        <time>2020-07-14T08:22:43Z</time>
      </trkpt>
      <trkpt lat="44.79" lon="1.66995">
        <ele>227.01</ele>
        <time>2020-07-14T08:22:48Z</time>
      </trkpt>
      <trkpt lat="44.79004" lon="1.66989">
        <ele>225.57</ele>
        <time>2020-07-14T08:22:52Z</time>
      </trkpt>
      <trkpt lat="44.79006" lon="1.66969">
        <ele>224.61</ele>
        <time>2020-07-14T08:23:10Z</time>
      </trkpt>
      <trkpt lat="44.7901" lon="1.6695">
        <ele>223.64</ele>
        <time>2020-07-14T08:23:26Z</time>
      </trkpt>
      <trkpt lat="44.79019" lon="1.66934">
        <ele>223.64</ele>
        <time>2020-07-14T08:23:46Z</time>
      </trkpt>
      <trkpt lat="44.79026" lon="1.66932">
        <ele>222.68</ele>
        <time>2020-07-14T08:24:08Z</time>
      </trkpt>
      <trkpt lat="44.79018" lon="1.66938">
        <ele>222.2</ele>
        <time>2020-07-14T08:24:28Z</time>
      </trkpt>
      <trkpt lat="44.79018" lon="1.66942">
        <ele>222.2</ele>
        <time>2020-07-14T08:24:55Z</time>
      </trkpt>
      <trkpt lat="44.79024" lon="1.66932">
        <ele>223.16</ele>
        <time>2020-07-14T08:25:19Z</time>
      </trkpt>
      <trkpt lat="44.7902" lon="1.66934">
        <ele>223.64</ele>
        <time>2020-07-14T08:25:42Z</time>
      </trkpt>
      <trkpt lat="44.79014" lon="1.6693">
        <ele>222.68</ele>
        <time>2020-07-14T08:26:04Z</time>
      </trkpt>
      <trkpt lat="44.79013" lon="1.66931">
        <ele>222.68</ele>
        <time>2020-07-14T08:26:30Z</time>
      </trkpt>
      <trkpt lat="44.79022" lon="1.6693">
        <ele>222.2</ele>
        <time>2020-07-14T08:26:48Z</time>
      </trkpt>
      <trkpt lat="44.79035" lon="1.66935">
        <ele>222.2</ele>
        <time>2020-07-14T08:27:06Z</time>
      </trkpt>
      <trkpt lat="44.79033" lon="1.6693">
        <ele>220.76</ele>
        <time>2020-07-14T08:27:29Z</time>
      </trkpt>
      <trkpt lat="44.79052" lon="1.66895">
        <ele>213.07</ele>
        <time>2020-07-14T08:30:06Z</time>
      </trkpt>
      <trkpt lat="44.79053" lon="1.66894">
        <ele>213.07</ele>
        <time>2020-07-14T08:30:25Z</time>
      </trkpt>
      <trkpt lat="44.79053" lon="1.66893">
        <ele>214.51</ele>
        <time>2020-07-14T08:30:28Z</time>
      </trkpt>
      <trkpt lat="44.79054" lon="1.66892">
        <ele>214.51</ele>
        <time>2020-07-14T08:30:37Z</time>
      </trkpt>
      <trkpt lat="44.79059" lon="1.66872">
        <ele>217.4</ele>
        <time>2020-07-14T08:31:01Z</time>
      </trkpt>
      <trkpt lat="44.79072" lon="1.6688">
        <ele>220.76</ele>
        <time>2020-07-14T08:31:22Z</time>
      </trkpt>
      <trkpt lat="44.79077" lon="1.66881">
        <ele>220.76</ele>
        <time>2020-07-14T08:31:28Z</time>
      </trkpt>
      <trkpt lat="44.79089" lon="1.66902">
        <ele>223.64</ele>
        <time>2020-07-14T08:31:49Z</time>
      </trkpt>
      <trkpt lat="44.79092" lon="1.66905">
        <ele>223.64</ele>
        <time>2020-07-14T08:31:57Z</time>
      </trkpt>
      <trkpt lat="44.79092" lon="1.66906">
        <ele>225.57</ele>
        <time>2020-07-14T08:31:58Z</time>
      </trkpt>
      <trkpt lat="44.79096" lon="1.66909">
        <ele>226.53</ele>
        <time>2020-07-14T08:32:15Z</time>
      </trkpt>
      <trkpt lat="44.791" lon="1.66915">
        <ele>227.01</ele>
        <time>2020-07-14T08:32:40Z</time>
      </trkpt>
      <trkpt lat="44.79095" lon="1.66935">
        <ele>228.45</ele>
        <time>2020-07-14T08:33:00Z</time>
      </trkpt>
      <trkpt lat="44.79103" lon="1.66944">
        <ele>231.33</ele>
        <time>2020-07-14T08:33:20Z</time>
      </trkpt>
      <trkpt lat="44.79117" lon="1.66954">
        <ele>233.74</ele>
        <time>2020-07-14T08:33:40Z</time>
      </trkpt>
      <trkpt lat="44.79109" lon="1.66964">
        <ele>233.74</ele>
        <time>2020-07-14T08:34:08Z</time>
      </trkpt>
      <trkpt lat="44.79118" lon="1.66965">
        <ele>233.74</ele>
        <time>2020-07-14T08:34:34Z</time>
      </trkpt>
      <trkpt lat="44.79111" lon="1.66968">
        <ele>233.74</ele>
        <time>2020-07-14T08:35:10Z</time>
      </trkpt>
      <trkpt lat="44.79104" lon="1.6697">
        <ele>234.22</ele>
        <time>2020-07-14T08:35:45Z</time>
      </trkpt>
      <trkpt lat="44.79102" lon="1.66972">
        <ele>234.7</ele>
        <time>2020-07-14T08:36:18Z</time>
      </trkpt>
      <trkpt lat="44.79099" lon="1.66984">
        <ele>235.66</ele>
        <time>2020-07-14T08:36:38Z</time>
      </trkpt>
      <trkpt lat="44.79093" lon="1.6701">
        <ele>236.14</ele>
        <time>2020-07-14T08:36:59Z</time>
      </trkpt>
      <trkpt lat="44.79092" lon="1.67015">
        <ele>234.7</ele>
        <time>2020-07-14T08:37:04Z</time>
      </trkpt>
      <trkpt lat="44.7909" lon="1.67045">
        <ele>237.1</ele>
        <time>2020-07-14T08:37:27Z</time>
      </trkpt>
      <trkpt lat="44.79096" lon="1.6705">
        <ele>235.18</ele>
        <time>2020-07-14T08:37:34Z</time>
      </trkpt>
      <trkpt lat="44.791" lon="1.67054">
        <ele>233.74</ele>
        <time>2020-07-14T08:37:38Z</time>
      </trkpt>
      <trkpt lat="44.79103" lon="1.67058">
        <ele>232.3</ele>
        <time>2020-07-14T08:37:46Z</time>
      </trkpt>
      <trkpt lat="44.79116" lon="1.67071">
        <ele>231.33</ele>
        <time>2020-07-14T08:38:12Z</time>
      </trkpt>
      <trkpt lat="44.79117" lon="1.67074">
        <ele>231.33</ele>
        <time>2020-07-14T08:38:47Z</time>
      </trkpt>
      <trkpt lat="44.79127" lon="1.67075">
        <ele>228.45</ele>
        <time>2020-07-14T08:39:08Z</time>
      </trkpt>
      <trkpt lat="44.79125" lon="1.67065">
        <ele>225.09</ele>
        <time>2020-07-14T08:39:23Z</time>
      </trkpt>
      <trkpt lat="44.7912" lon="1.67047">
        <ele>221.72</ele>
        <time>2020-07-14T08:39:39Z</time>
      </trkpt>
      <trkpt lat="44.79119" lon="1.67031">
        <ele>218.84</ele>
        <time>2020-07-14T08:39:57Z</time>
      </trkpt>
      <trkpt lat="44.79129" lon="1.67039">
        <ele>214.99</ele>
        <time>2020-07-14T08:40:11Z</time>
      </trkpt>
      <trkpt lat="44.79129" lon="1.67039">
        <ele>214.99</ele>
        <time>2020-07-14T08:40:12Z</time>
      </trkpt>
      <trkpt lat="44.79141" lon="1.6704">
        <ele>211.15</ele>
        <time>2020-07-14T08:40:27Z</time>
      </trkpt>
      <trkpt lat="44.79141" lon="1.6704">
        <ele>211.15</ele>
        <time>2020-07-14T08:40:28Z</time>
      </trkpt>
      <trkpt lat="44.79144" lon="1.67028">
        <ele>208.26</ele>
        <time>2020-07-14T08:40:44Z</time>
      </trkpt>
      <trkpt lat="44.79144" lon="1.67028">
        <ele>208.26</ele>
        <time>2020-07-14T08:40:45Z</time>
      </trkpt>
      <trkpt lat="44.79146" lon="1.6703">
        <ele>207.78</ele>
        <time>2020-07-14T08:41:11Z</time>
      </trkpt>
      <trkpt lat="44.79141" lon="1.67031">
        <ele>204.42</ele>
        <time>2020-07-14T08:41:34Z</time>
      </trkpt>
      <trkpt lat="44.79138" lon="1.67029">
        <ele>203.46</ele>
        <time>2020-07-14T08:41:42Z</time>
      </trkpt>
      <trkpt lat="44.79139" lon="1.67026">
        <ele>201.53</ele>
        <time>2020-07-14T08:41:50Z</time>
      </trkpt>
      <trkpt lat="44.79157" lon="1.67034">
        <ele>199.61</ele>
        <time>2020-07-14T08:42:13Z</time>
      </trkpt>
      <trkpt lat="44.79185" lon="1.67025">
        <ele>199.13</ele>
        <time>2020-07-14T08:42:37Z</time>
      </trkpt>
      <trkpt lat="44.79203" lon="1.6701">
        <ele>200.57</ele>
        <time>2020-07-14T08:42:57Z</time>
      </trkpt>
      <trkpt lat="44.79206" lon="1.67011">
        <ele>199.13</ele>
        <time>2020-07-14T08:43:00Z</time>
      </trkpt>
      <trkpt lat="44.79226" lon="1.67011">
        <ele>199.13</ele>
        <time>2020-07-14T08:43:21Z</time>
      </trkpt>
      <trkpt lat="44.79247" lon="1.66994">
        <ele>198.17</ele>
        <time>2020-07-14T08:43:44Z</time>
      </trkpt>
      <trkpt lat="44.79269" lon="1.66965">
        <ele>197.69</ele>
        <time>2020-07-14T08:44:06Z</time>
      </trkpt>
      <trkpt lat="44.79289" lon="1.66957">
        <ele>197.69</ele>
        <time>2020-07-14T08:44:24Z</time>
      </trkpt>
      <trkpt lat="44.79313" lon="1.66945">
        <ele>198.17</ele>
        <time>2020-07-14T08:44:48Z</time>
      </trkpt>
      <trkpt lat="44.7933" lon="1.6692">
        <ele>197.69</ele>
        <time>2020-07-14T08:45:08Z</time>
      </trkpt>
      <trkpt lat="44.7934" lon="1.66903">
        <ele>198.17</ele>
        <time>2020-07-14T08:45:16Z</time>
      </trkpt>
      <trkpt lat="44.79363" lon="1.66869">
        <ele>197.69</ele>
        <time>2020-07-14T08:45:39Z</time>
      </trkpt>
      <trkpt lat="44.79377" lon="1.6685">
        <ele>196.25</ele>
        <time>2020-07-14T08:45:59Z</time>
      </trkpt>
      <trkpt lat="44.79395" lon="1.66823">
        <ele>196.25</ele>
        <time>2020-07-14T08:46:18Z</time>
      </trkpt>
      <trkpt lat="44.79396" lon="1.66818">
        <ele>196.25</ele>
        <time>2020-07-14T08:46:22Z</time>
      </trkpt>
      <trkpt lat="44.79409" lon="1.6679">
        <ele>196.25</ele>
        <time>2020-07-14T08:46:41Z</time>
      </trkpt>
      <trkpt lat="44.7941" lon="1.66785">
        <ele>195.28</ele>
        <time>2020-07-14T08:46:44Z</time>
      </trkpt>
      <trkpt lat="44.79409" lon="1.6678">
        <ele>196.25</ele>
        <time>2020-07-14T08:46:48Z</time>
      </trkpt>
      <trkpt lat="44.79411" lon="1.66773">
        <ele>196.25</ele>
        <time>2020-07-14T08:46:53Z</time>
      </trkpt>
      <trkpt lat="44.79415" lon="1.66752">
        <ele>196.25</ele>
        <time>2020-07-14T08:47:12Z</time>
      </trkpt>
      <trkpt lat="44.79416" lon="1.66733">
        <ele>198.65</ele>
        <time>2020-07-14T08:47:29Z</time>
      </trkpt>
      <trkpt lat="44.79415" lon="1.66723">
        <ele>200.57</ele>
        <time>2020-07-14T08:47:44Z</time>
      </trkpt>
      <trkpt lat="44.79411" lon="1.66723">
        <ele>201.53</ele>
        <time>2020-07-14T08:48:06Z</time>
      </trkpt>
      <trkpt lat="44.79409" lon="1.66703">
        <ele>201.05</ele>
        <time>2020-07-14T08:48:18Z</time>
      </trkpt>
      <trkpt lat="44.79398" lon="1.66679">
        <ele>199.13</ele>
        <time>2020-07-14T08:48:39Z</time>
      </trkpt>
      <trkpt lat="44.79387" lon="1.66657">
        <ele>195.28</ele>
        <time>2020-07-14T08:48:58Z</time>
      </trkpt>
      <trkpt lat="44.7938" lon="1.66627">
        <ele>194.32</ele>
        <time>2020-07-14T08:49:19Z</time>
      </trkpt>
      <trkpt lat="44.79381" lon="1.6662">
        <ele>195.77</ele>
        <time>2020-07-14T08:49:23Z</time>
      </trkpt>
      <trkpt lat="44.79382" lon="1.66605">
        <ele>193.84</ele>
        <time>2020-07-14T08:49:30Z</time>
      </trkpt>
      <trkpt lat="44.79385" lon="1.66558">
        <ele>195.77</ele>
        <time>2020-07-14T08:49:54Z</time>
      </trkpt>
      <trkpt lat="44.79386" lon="1.66553">
        <ele>194.32</ele>
        <time>2020-07-14T08:49:58Z</time>
      </trkpt>
      <trkpt lat="44.79394" lon="1.66537">
        <ele>194.32</ele>
        <time>2020-07-14T08:50:19Z</time>
      </trkpt>
      <trkpt lat="44.79407" lon="1.66517">
        <ele>192.88</ele>
        <time>2020-07-14T08:50:38Z</time>
      </trkpt>
      <trkpt lat="44.79407" lon="1.66492">
        <ele>194.32</ele>
        <time>2020-07-14T08:50:54Z</time>
      </trkpt>
      <trkpt lat="44.79421" lon="1.66453">
        <ele>195.28</ele>
        <time>2020-07-14T08:51:18Z</time>
      </trkpt>
      <trkpt lat="44.79422" lon="1.66449">
        <ele>193.84</ele>
        <time>2020-07-14T08:51:21Z</time>
      </trkpt>
      <trkpt lat="44.79434" lon="1.66413">
        <ele>193.36</ele>
        <time>2020-07-14T08:51:45Z</time>
      </trkpt>
      <trkpt lat="44.79451" lon="1.66389">
        <ele>192.4</ele>
        <time>2020-07-14T08:52:08Z</time>
      </trkpt>
      <trkpt lat="44.79458" lon="1.66378">
        <ele>192.88</ele>
        <time>2020-07-14T08:52:22Z</time>
      </trkpt>
      <trkpt lat="44.79467" lon="1.66344">
        <ele>190.96</ele>
        <time>2020-07-14T08:52:45Z</time>
      </trkpt>
      <trkpt lat="44.79468" lon="1.66336">
        <ele>191.92</ele>
        <time>2020-07-14T08:52:51Z</time>
      </trkpt>
      <trkpt lat="44.7948" lon="1.66322">
        <ele>193.36</ele>
        <time>2020-07-14T08:53:09Z</time>
      </trkpt>
      <trkpt lat="44.79492" lon="1.6632">
        <ele>193.84</ele>
        <time>2020-07-14T08:53:26Z</time>
      </trkpt>
      <trkpt lat="44.795" lon="1.66329">
        <ele>194.32</ele>
        <time>2020-07-14T08:53:50Z</time>
      </trkpt>
      <trkpt lat="44.79508" lon="1.66325">
        <ele>192.4</ele>
        <time>2020-07-14T08:54:08Z</time>
      </trkpt>
      <trkpt lat="44.79518" lon="1.66318">
        <ele>191.44</ele>
        <time>2020-07-14T08:54:24Z</time>
      </trkpt>
      <trkpt lat="44.79528" lon="1.6632">
        <ele>190</ele>
        <time>2020-07-14T08:54:30Z</time>
      </trkpt>
      <trkpt lat="44.79543" lon="1.66307">
        <ele>190</ele>
        <time>2020-07-14T08:54:46Z</time>
      </trkpt>
      <trkpt lat="44.79546" lon="1.66302">
        <ele>190.96</ele>
        <time>2020-07-14T08:54:50Z</time>
      </trkpt>
      <trkpt lat="44.7955" lon="1.66291">
        <ele>189.52</ele>
        <time>2020-07-14T08:54:59Z</time>
      </trkpt>
      <trkpt lat="44.79552" lon="1.6629">
        <ele>190.96</ele>
        <time>2020-07-14T08:55:01Z</time>
      </trkpt>
      <trkpt lat="44.79581" lon="1.66278">
        <ele>192.88</ele>
        <time>2020-07-14T08:55:22Z</time>
      </trkpt>
      <trkpt lat="44.79609" lon="1.66255">
        <ele>192.88</ele>
        <time>2020-07-14T08:55:44Z</time>
      </trkpt>
      <trkpt lat="44.79613" lon="1.66252">
        <ele>193.84</ele>
        <time>2020-07-14T08:55:47Z</time>
      </trkpt>
      <trkpt lat="44.79633" lon="1.66233">
        <ele>194.8</ele>
        <time>2020-07-14T08:56:11Z</time>
      </trkpt>
      <trkpt lat="44.79654" lon="1.66235">
        <ele>195.28</ele>
        <time>2020-07-14T08:56:32Z</time>
      </trkpt>
      <trkpt lat="44.79665" lon="1.66202">
        <ele>195.28</ele>
        <time>2020-07-14T08:56:48Z</time>
      </trkpt>
      <trkpt lat="44.7967" lon="1.6621">
        <ele>195.28</ele>
        <time>2020-07-14T08:57:06Z</time>
      </trkpt>
      <trkpt lat="44.79668" lon="1.66209">
        <ele>195.28</ele>
        <time>2020-07-14T08:57:28Z</time>
      </trkpt>
      <trkpt lat="44.79666" lon="1.66213">
        <ele>195.28</ele>
        <time>2020-07-14T08:57:57Z</time>
      </trkpt>
      <trkpt lat="44.79669" lon="1.66209">
        <ele>194.32</ele>
        <time>2020-07-14T08:58:20Z</time>
      </trkpt>
      <trkpt lat="44.79667" lon="1.66201">
        <ele>194.32</ele>
        <time>2020-07-14T08:58:51Z</time>
      </trkpt>
      <trkpt lat="44.79672" lon="1.66195">
        <ele>194.32</ele>
        <time>2020-07-14T08:59:17Z</time>
      </trkpt>
      <trkpt lat="44.79671" lon="1.66195">
        <ele>194.32</ele>
        <time>2020-07-14T08:59:42Z</time>
      </trkpt>
      <trkpt lat="44.79668" lon="1.66187">
        <ele>194.32</ele>
        <time>2020-07-14T09:00:07Z</time>
      </trkpt>
      <trkpt lat="44.79676" lon="1.66196">
        <ele>194.32</ele>
        <time>2020-07-14T09:00:32Z</time>
      </trkpt>
      <trkpt lat="44.79678" lon="1.66225">
        <ele>194.32</ele>
        <time>2020-07-14T09:00:58Z</time>
      </trkpt>
      <trkpt lat="44.79676" lon="1.66219">
        <ele>193.84</ele>
        <time>2020-07-14T09:01:18Z</time>
      </trkpt>
      <trkpt lat="44.79671" lon="1.66213">
        <ele>193.84</ele>
        <time>2020-07-14T09:01:36Z</time>
      </trkpt>
      <trkpt lat="44.7967" lon="1.66219">
        <ele>193.84</ele>
        <time>2020-07-14T09:02:03Z</time>
      </trkpt>
      <trkpt lat="44.79673" lon="1.66216">
        <ele>193.84</ele>
        <time>2020-07-14T09:02:31Z</time>
      </trkpt>
      <trkpt lat="44.79674" lon="1.66216">
        <ele>193.84</ele>
        <time>2020-07-14T09:03:01Z</time>
      </trkpt>
      <trkpt lat="44.79672" lon="1.66215">
        <ele>193.84</ele>
        <time>2020-07-14T09:03:31Z</time>
      </trkpt>
      <trkpt lat="44.79671" lon="1.66211">
        <ele>193.84</ele>
        <time>2020-07-14T09:03:54Z</time>
      </trkpt>
      <trkpt lat="44.79669" lon="1.66216">
        <ele>193.84</ele>
        <time>2020-07-14T09:04:14Z</time>
      </trkpt>
      <trkpt lat="44.7967" lon="1.66218">
        <ele>193.36</ele>
        <time>2020-07-14T09:04:42Z</time>
      </trkpt>
      <trkpt lat="44.7967" lon="1.66217">
        <ele>193.36</ele>
        <time>2020-07-14T09:05:10Z</time>
      </trkpt>
      <trkpt lat="44.79669" lon="1.66217">
        <ele>193.36</ele>
        <time>2020-07-14T09:05:41Z</time>
      </trkpt>
      <trkpt lat="44.79667" lon="1.6622">
        <ele>193.36</ele>
        <time>2020-07-14T09:06:14Z</time>
      </trkpt>
      <trkpt lat="44.79669" lon="1.66213">
        <ele>193.36</ele>
        <time>2020-07-14T09:06:41Z</time>
      </trkpt>
      <trkpt lat="44.79665" lon="1.66216">
        <ele>193.36</ele>
        <time>2020-07-14T09:07:07Z</time>
      </trkpt>
      <trkpt lat="44.79668" lon="1.66217">
        <ele>193.36</ele>
        <time>2020-07-14T09:07:35Z</time>
      </trkpt>
      <trkpt lat="44.79672" lon="1.66218">
        <ele>193.36</ele>
        <time>2020-07-14T09:08:01Z</time>
      </trkpt>
      <trkpt lat="44.79673" lon="1.66213">
        <ele>193.36</ele>
        <time>2020-07-14T09:08:28Z</time>
      </trkpt>
      <trkpt lat="44.79673" lon="1.66211">
        <ele>193.36</ele>
        <time>2020-07-14T09:08:55Z</time>
      </trkpt>
      <trkpt lat="44.79671" lon="1.66216">
        <ele>192.88</ele>
        <time>2020-07-14T09:09:21Z</time>
      </trkpt>
      <trkpt lat="44.79671" lon="1.66213">
        <ele>192.88</ele>
        <time>2020-07-14T09:09:49Z</time>
      </trkpt>
      <trkpt lat="44.79671" lon="1.66215">
        <ele>192.88</ele>
        <time>2020-07-14T09:10:15Z</time>
      </trkpt>
      <trkpt lat="44.79672" lon="1.66208">
        <ele>192.88</ele>
        <time>2020-07-14T09:10:48Z</time>
      </trkpt>
      <trkpt lat="44.79672" lon="1.66208">
        <ele>193.84</ele>
        <time>2020-07-14T09:11:12Z</time>
      </trkpt>
      <trkpt lat="44.79674" lon="1.6621">
        <ele>194.32</ele>
        <time>2020-07-14T09:11:25Z</time>
      </trkpt>
      <trkpt lat="44.79679" lon="1.66204">
        <ele>194.32</ele>
        <time>2020-07-14T09:11:38Z</time>
      </trkpt>
      <trkpt lat="44.79693" lon="1.66189">
        <ele>191.44</ele>
        <time>2020-07-14T09:11:59Z</time>
      </trkpt>
      <trkpt lat="44.79712" lon="1.6618">
        <ele>188.56</ele>
        <time>2020-07-14T09:12:21Z</time>
      </trkpt>
      <trkpt lat="44.79735" lon="1.66145">
        <ele>186.15</ele>
        <time>2020-07-14T09:12:48Z</time>
      </trkpt>
      <trkpt lat="44.79764" lon="1.66134">
        <ele>185.19</ele>
        <time>2020-07-14T09:13:13Z</time>
      </trkpt>
      <trkpt lat="44.7978" lon="1.66127">
        <ele>185.19</ele>
        <time>2020-07-14T09:13:27Z</time>
      </trkpt>
      <trkpt lat="44.7981" lon="1.6612">
        <ele>184.71</ele>
        <time>2020-07-14T09:13:50Z</time>
      </trkpt>
      <trkpt lat="44.79817" lon="1.66117">
        <ele>184.71</ele>
        <time>2020-07-14T09:13:56Z</time>
      </trkpt>
      <trkpt lat="44.79827" lon="1.66114">
        <ele>184.71</ele>
        <time>2020-07-14T09:14:04Z</time>
      </trkpt>
      <trkpt lat="44.79834" lon="1.66111">
        <ele>184.23</ele>
        <time>2020-07-14T09:14:12Z</time>
      </trkpt>
      <trkpt lat="44.79863" lon="1.66125">
        <ele>184.23</ele>
        <time>2020-07-14T09:14:33Z</time>
      </trkpt>
      <trkpt lat="44.79869" lon="1.66125">
        <ele>185.19</ele>
        <time>2020-07-14T09:14:39Z</time>
      </trkpt>
      <trkpt lat="44.799" lon="1.66132">
        <ele>185.19</ele>
        <time>2020-07-14T09:15:02Z</time>
      </trkpt>
      <trkpt lat="44.79919" lon="1.66138">
        <ele>183.27</ele>
        <time>2020-07-14T09:15:18Z</time>
      </trkpt>
      <trkpt lat="44.79926" lon="1.66134">
        <ele>182.31</ele>
        <time>2020-07-14T09:15:24Z</time>
      </trkpt>
      <trkpt lat="44.79927" lon="1.66132">
        <ele>183.75</ele>
        <time>2020-07-14T09:15:25Z</time>
      </trkpt>
      <trkpt lat="44.7994" lon="1.66129">
        <ele>183.75</ele>
        <time>2020-07-14T09:15:45Z</time>
      </trkpt>
      <trkpt lat="44.79939" lon="1.66125">
        <ele>183.27</ele>
        <time>2020-07-14T09:16:13Z</time>
      </trkpt>
      <trkpt lat="44.7994" lon="1.66126">
        <ele>182.31</ele>
        <time>2020-07-14T09:16:20Z</time>
      </trkpt>
      <trkpt lat="44.79923" lon="1.66114">
        <ele>182.31</ele>
        <time>2020-07-14T09:16:59Z</time>
      </trkpt>
      <trkpt lat="44.79945" lon="1.66116">
        <ele>182.31</ele>
        <time>2020-07-14T09:17:16Z</time>
      </trkpt>
      <trkpt lat="44.79955" lon="1.66093">
        <ele>183.27</ele>
        <time>2020-07-14T09:17:37Z</time>
      </trkpt>
      <trkpt lat="44.79966" lon="1.66066">
        <ele>181.83</ele>
        <time>2020-07-14T09:17:54Z</time>
      </trkpt>
      <trkpt lat="44.79972" lon="1.66042">
        <ele>182.31</ele>
        <time>2020-07-14T09:18:08Z</time>
      </trkpt>
      <trkpt lat="44.79975" lon="1.66026">
        <ele>180.87</ele>
        <time>2020-07-14T09:18:17Z</time>
      </trkpt>
      <trkpt lat="44.79975" lon="1.66021">
        <ele>181.83</ele>
        <time>2020-07-14T09:18:20Z</time>
      </trkpt>
      <trkpt lat="44.79976" lon="1.66017">
        <ele>180.38</ele>
        <time>2020-07-14T09:18:22Z</time>
      </trkpt>
      <trkpt lat="44.79977" lon="1.66013">
        <ele>181.83</ele>
        <time>2020-07-14T09:18:24Z</time>
      </trkpt>
      <trkpt lat="44.79984" lon="1.65986">
        <ele>179.9</ele>
        <time>2020-07-14T09:18:38Z</time>
      </trkpt>
      <trkpt lat="44.79985" lon="1.65984">
        <ele>181.83</ele>
        <time>2020-07-14T09:18:40Z</time>
      </trkpt>
      <trkpt lat="44.79997" lon="1.65974">
        <ele>185.19</ele>
        <time>2020-07-14T09:18:58Z</time>
      </trkpt>
      <trkpt lat="44.8001" lon="1.6596">
        <ele>186.15</ele>
        <time>2020-07-14T09:19:17Z</time>
      </trkpt>
      <trkpt lat="44.8002" lon="1.65941">
        <ele>186.15</ele>
        <time>2020-07-14T09:19:39Z</time>
      </trkpt>
      <trkpt lat="44.80027" lon="1.65923">
        <ele>182.79</ele>
        <time>2020-07-14T09:19:52Z</time>
      </trkpt>
      <trkpt lat="44.80027" lon="1.65922">
        <ele>182.79</ele>
        <time>2020-07-14T09:19:53Z</time>
      </trkpt>
      <trkpt lat="44.80029" lon="1.65916">
        <ele>179.9</ele>
        <time>2020-07-14T09:19:59Z</time>
      </trkpt>
      <trkpt lat="44.80029" lon="1.65913">
        <ele>181.35</ele>
        <time>2020-07-14T09:20:01Z</time>
      </trkpt>
      <trkpt lat="44.80028" lon="1.65901">
        <ele>178.46</ele>
        <time>2020-07-14T09:20:10Z</time>
      </trkpt>
      <trkpt lat="44.80029" lon="1.659">
        <ele>178.46</ele>
        <time>2020-07-14T09:20:11Z</time>
      </trkpt>
      <trkpt lat="44.8003" lon="1.65898">
        <ele>179.9</ele>
        <time>2020-07-14T09:20:13Z</time>
      </trkpt>
      <trkpt lat="44.80031" lon="1.65896">
        <ele>178.46</ele>
        <time>2020-07-14T09:20:15Z</time>
      </trkpt>
      <trkpt lat="44.80032" lon="1.65894">
        <ele>179.9</ele>
        <time>2020-07-14T09:20:17Z</time>
      </trkpt>
      <trkpt lat="44.80033" lon="1.65891">
        <ele>177.98</ele>
        <time>2020-07-14T09:20:20Z</time>
      </trkpt>
      <trkpt lat="44.80035" lon="1.65889">
        <ele>179.42</ele>
        <time>2020-07-14T09:20:22Z</time>
      </trkpt>
      <trkpt lat="44.80044" lon="1.65876">
        <ele>177.98</ele>
        <time>2020-07-14T09:20:36Z</time>
      </trkpt>
      <trkpt lat="44.80046" lon="1.65874">
        <ele>179.42</ele>
        <time>2020-07-14T09:20:38Z</time>
      </trkpt>
      <trkpt lat="44.80049" lon="1.65871">
        <ele>177.98</ele>
        <time>2020-07-14T09:20:42Z</time>
      </trkpt>
      <trkpt lat="44.80051" lon="1.65865">
        <ele>178.94</ele>
        <time>2020-07-14T09:20:47Z</time>
      </trkpt>
      <trkpt lat="44.80059" lon="1.65842">
        <ele>178.94</ele>
        <time>2020-07-14T09:21:01Z</time>
      </trkpt>
      <trkpt lat="44.80065" lon="1.6581">
        <ele>178.46</ele>
        <time>2020-07-14T09:21:21Z</time>
      </trkpt>
      <trkpt lat="44.80064" lon="1.65796">
        <ele>177.5</ele>
        <time>2020-07-14T09:21:36Z</time>
      </trkpt>
      <trkpt lat="44.80063" lon="1.65793">
        <ele>179.42</ele>
        <time>2020-07-14T09:21:38Z</time>
      </trkpt>
      <trkpt lat="44.80057" lon="1.6577">
        <ele>178.46</ele>
        <time>2020-07-14T09:21:58Z</time>
      </trkpt>
      <trkpt lat="44.80057" lon="1.65769">
        <ele>178.46</ele>
        <time>2020-07-14T09:21:59Z</time>
      </trkpt>
      <trkpt lat="44.80042" lon="1.65741">
        <ele>177.02</ele>
        <time>2020-07-14T09:22:22Z</time>
      </trkpt>
      <trkpt lat="44.80037" lon="1.65732">
        <ele>175.58</ele>
        <time>2020-07-14T09:22:31Z</time>
      </trkpt>
      <trkpt lat="44.80022" lon="1.65698">
        <ele>175.58</ele>
        <time>2020-07-14T09:22:43Z</time>
      </trkpt>
      <trkpt lat="44.80019" lon="1.65687">
        <ele>177.02</ele>
        <time>2020-07-14T09:22:47Z</time>
      </trkpt>
      <trkpt lat="44.80004" lon="1.65659">
        <ele>177.02</ele>
        <time>2020-07-14T09:23:08Z</time>
      </trkpt>
      <trkpt lat="44.80004" lon="1.65654">
        <ele>177.02</ele>
        <time>2020-07-14T09:23:33Z</time>
      </trkpt>
      <trkpt lat="44.80004" lon="1.65648">
        <ele>177.5</ele>
        <time>2020-07-14T09:23:51Z</time>
      </trkpt>
      <trkpt lat="44.8" lon="1.65644">
        <ele>176.06</ele>
        <time>2020-07-14T09:24:15Z</time>
      </trkpt>
      <trkpt lat="44.79995" lon="1.65659">
        <ele>175.1</ele>
        <time>2020-07-14T09:24:36Z</time>
      </trkpt>
      <trkpt lat="44.79978" lon="1.65652">
        <ele>175.1</ele>
        <time>2020-07-14T09:24:55Z</time>
      </trkpt>
      <trkpt lat="44.79976" lon="1.65651">
        <ele>175.1</ele>
        <time>2020-07-14T09:24:56Z</time>
      </trkpt>
      <trkpt lat="44.79973" lon="1.6565">
        <ele>176.54</ele>
        <time>2020-07-14T09:24:59Z</time>
      </trkpt>
      <trkpt lat="44.79968" lon="1.65647">
        <ele>175.1</ele>
        <time>2020-07-14T09:25:04Z</time>
      </trkpt>
      <trkpt lat="44.79964" lon="1.65645">
        <ele>176.54</ele>
        <time>2020-07-14T09:25:08Z</time>
      </trkpt>
      <trkpt lat="44.79936" lon="1.65646">
        <ele>176.54</ele>
        <time>2020-07-14T09:25:33Z</time>
      </trkpt>
      <trkpt lat="44.79917" lon="1.65636">
        <ele>175.1</ele>
        <time>2020-07-14T09:25:55Z</time>
      </trkpt>
      <trkpt lat="44.79895" lon="1.65636">
        <ele>175.1</ele>
        <time>2020-07-14T09:26:16Z</time>
      </trkpt>
      <trkpt lat="44.79884" lon="1.65639">
        <ele>175.1</ele>
        <time>2020-07-14T09:26:30Z</time>
      </trkpt>
      <trkpt lat="44.79868" lon="1.65638">
        <ele>174.62</ele>
        <time>2020-07-14T09:26:43Z</time>
      </trkpt>
      <trkpt lat="44.79858" lon="1.65615">
        <ele>175.1</ele>
        <time>2020-07-14T09:27:08Z</time>
      </trkpt>
      <trkpt lat="44.79862" lon="1.65603">
        <ele>177.98</ele>
        <time>2020-07-14T09:27:28Z</time>
      </trkpt>
      <trkpt lat="44.79866" lon="1.65571">
        <ele>178.94</ele>
        <time>2020-07-14T09:27:52Z</time>
      </trkpt>
      <trkpt lat="44.79873" lon="1.65555">
        <ele>176.06</ele>
        <time>2020-07-14T09:28:12Z</time>
      </trkpt>
      <trkpt lat="44.79881" lon="1.65544">
        <ele>171.73</ele>
        <time>2020-07-14T09:28:36Z</time>
      </trkpt>
      <trkpt lat="44.79885" lon="1.65538">
        <ele>173.17</ele>
        <time>2020-07-14T09:28:42Z</time>
      </trkpt>
      <trkpt lat="44.79879" lon="1.65504">
        <ele>173.17</ele>
        <time>2020-07-14T09:29:01Z</time>
      </trkpt>
      <trkpt lat="44.79871" lon="1.65477">
        <ele>173.17</ele>
        <time>2020-07-14T09:29:22Z</time>
      </trkpt>
      <trkpt lat="44.79864" lon="1.65465">
        <ele>175.58</ele>
        <time>2020-07-14T09:29:37Z</time>
      </trkpt>
      <trkpt lat="44.79863" lon="1.6545">
        <ele>178.46</ele>
        <time>2020-07-14T09:29:59Z</time>
      </trkpt>
      <trkpt lat="44.79866" lon="1.6544">
        <ele>181.35</ele>
        <time>2020-07-14T09:30:20Z</time>
      </trkpt>
      <trkpt lat="44.7987" lon="1.65412">
        <ele>180.38</ele>
        <time>2020-07-14T09:30:39Z</time>
      </trkpt>
      <trkpt lat="44.79868" lon="1.65391">
        <ele>177.98</ele>
        <time>2020-07-14T09:30:55Z</time>
      </trkpt>
      <trkpt lat="44.79877" lon="1.65367">
        <ele>177.98</ele>
        <time>2020-07-14T09:31:09Z</time>
      </trkpt>
      <trkpt lat="44.79887" lon="1.65341">
        <ele>176.54</ele>
        <time>2020-07-14T09:31:30Z</time>
      </trkpt>
      <trkpt lat="44.79893" lon="1.65327">
        <ele>173.66</ele>
        <time>2020-07-14T09:31:53Z</time>
      </trkpt>
      <trkpt lat="44.79896" lon="1.6531">
        <ele>170.29</ele>
        <time>2020-07-14T09:32:03Z</time>
      </trkpt>
      <trkpt lat="44.79908" lon="1.6528">
        <ele>169.81</ele>
        <time>2020-07-14T09:32:24Z</time>
      </trkpt>
      <trkpt lat="44.79912" lon="1.65271">
        <ele>170.77</ele>
        <time>2020-07-14T09:32:32Z</time>
      </trkpt>
      <trkpt lat="44.79929" lon="1.65261">
        <ele>170.29</ele>
        <time>2020-07-14T09:32:51Z</time>
      </trkpt>
      <trkpt lat="44.79937" lon="1.65262">
        <ele>168.85</ele>
        <time>2020-07-14T09:32:59Z</time>
      </trkpt>
      <trkpt lat="44.79946" lon="1.65262">
        <ele>169.81</ele>
        <time>2020-07-14T09:33:08Z</time>
      </trkpt>
      <trkpt lat="44.7995" lon="1.65262">
        <ele>168.85</ele>
        <time>2020-07-14T09:33:12Z</time>
      </trkpt>
      <trkpt lat="44.79964" lon="1.65257">
        <ele>168.37</ele>
        <time>2020-07-14T09:33:22Z</time>
      </trkpt>
      <trkpt lat="44.79985" lon="1.65234">
        <ele>169.33</ele>
        <time>2020-07-14T09:33:40Z</time>
      </trkpt>
      <trkpt lat="44.79988" lon="1.65225">
        <ele>167.89</ele>
        <time>2020-07-14T09:33:48Z</time>
      </trkpt>
      <trkpt lat="44.79993" lon="1.65216">
        <ele>168.85</ele>
        <time>2020-07-14T09:33:55Z</time>
      </trkpt>
      <trkpt lat="44.79995" lon="1.65211">
        <ele>167.41</ele>
        <time>2020-07-14T09:33:58Z</time>
      </trkpt>
      <trkpt lat="44.79995" lon="1.65185">
        <ele>168.37</ele>
        <time>2020-07-14T09:34:20Z</time>
      </trkpt>
      <trkpt lat="44.79995" lon="1.65184">
        <ele>168.37</ele>
        <time>2020-07-14T09:34:21Z</time>
      </trkpt>
      <trkpt lat="44.79993" lon="1.65161">
        <ele>166.93</ele>
        <time>2020-07-14T09:34:40Z</time>
      </trkpt>
      <trkpt lat="44.79979" lon="1.65136">
        <ele>166.93</ele>
        <time>2020-07-14T09:34:59Z</time>
      </trkpt>
      <trkpt lat="44.79964" lon="1.65112">
        <ele>166.45</ele>
        <time>2020-07-14T09:35:21Z</time>
      </trkpt>
      <trkpt lat="44.79958" lon="1.65101">
        <ele>167.41</ele>
        <time>2020-07-14T09:35:29Z</time>
      </trkpt>
      <trkpt lat="44.79952" lon="1.65076">
        <ele>167.41</ele>
        <time>2020-07-14T09:35:41Z</time>
      </trkpt>
      <trkpt lat="44.79952" lon="1.65068">
        <ele>165.96</ele>
        <time>2020-07-14T09:35:44Z</time>
      </trkpt>
      <trkpt lat="44.79958" lon="1.65048">
        <ele>165.48</ele>
        <time>2020-07-14T09:35:59Z</time>
      </trkpt>
      <trkpt lat="44.79962" lon="1.6504">
        <ele>165.48</ele>
        <time>2020-07-14T09:36:15Z</time>
      </trkpt>
      <trkpt lat="44.79965" lon="1.65039">
        <ele>165.48</ele>
        <time>2020-07-14T09:36:35Z</time>
      </trkpt>
      <trkpt lat="44.79962" lon="1.65023">
        <ele>165</ele>
        <time>2020-07-14T09:36:59Z</time>
      </trkpt>
      <trkpt lat="44.79955" lon="1.65003">
        <ele>165</ele>
        <time>2020-07-14T09:37:18Z</time>
      </trkpt>
      <trkpt lat="44.79953" lon="1.6499">
        <ele>163.08</ele>
        <time>2020-07-14T09:37:30Z</time>
      </trkpt>
      <trkpt lat="44.79951" lon="1.64968">
        <ele>164.04</ele>
        <time>2020-07-14T09:37:42Z</time>
      </trkpt>
      <trkpt lat="44.79961" lon="1.6494">
        <ele>165</ele>
        <time>2020-07-14T09:38:05Z</time>
      </trkpt>
      <trkpt lat="44.79967" lon="1.64933">
        <ele>165.96</ele>
        <time>2020-07-14T09:38:11Z</time>
      </trkpt>
      <trkpt lat="44.79973" lon="1.64903">
        <ele>167.41</ele>
        <time>2020-07-14T09:38:27Z</time>
      </trkpt>
      <trkpt lat="44.79974" lon="1.64897">
        <ele>167.41</ele>
        <time>2020-07-14T09:38:43Z</time>
      </trkpt>
      <trkpt lat="44.79979" lon="1.64895">
        <ele>166.45</ele>
        <time>2020-07-14T09:38:57Z</time>
      </trkpt>
      <trkpt lat="44.79985" lon="1.64887">
        <ele>166.45</ele>
        <time>2020-07-14T09:39:08Z</time>
      </trkpt>
      <trkpt lat="44.79995" lon="1.64863">
        <ele>166.93</ele>
        <time>2020-07-14T09:39:27Z</time>
      </trkpt>
      <trkpt lat="44.79995" lon="1.64848">
        <ele>166.93</ele>
        <time>2020-07-14T09:39:37Z</time>
      </trkpt>
      <trkpt lat="44.79993" lon="1.64832">
        <ele>165.48</ele>
        <time>2020-07-14T09:39:44Z</time>
      </trkpt>
      <trkpt lat="44.79986" lon="1.64802">
        <ele>163.56</ele>
        <time>2020-07-14T09:40:05Z</time>
      </trkpt>
      <trkpt lat="44.79981" lon="1.64785">
        <ele>165</ele>
        <time>2020-07-14T09:40:16Z</time>
      </trkpt>
      <trkpt lat="44.79981" lon="1.64783">
        <ele>165</ele>
        <time>2020-07-14T09:40:17Z</time>
      </trkpt>
      <trkpt lat="44.79975" lon="1.64756">
        <ele>165</ele>
        <time>2020-07-14T09:40:38Z</time>
      </trkpt>
      <trkpt lat="44.79972" lon="1.64731">
        <ele>163.56</ele>
        <time>2020-07-14T09:40:59Z</time>
      </trkpt>
      <trkpt lat="44.79964" lon="1.64704">
        <ele>166.45</ele>
        <time>2020-07-14T09:41:20Z</time>
      </trkpt>
      <trkpt lat="44.79956" lon="1.64675">
        <ele>168.37</ele>
        <time>2020-07-14T09:41:41Z</time>
      </trkpt>
      <trkpt lat="44.79952" lon="1.64636">
        <ele>166.93</ele>
        <time>2020-07-14T09:42:03Z</time>
      </trkpt>
      <trkpt lat="44.79952" lon="1.646">
        <ele>165.96</ele>
        <time>2020-07-14T09:42:26Z</time>
      </trkpt>
      <trkpt lat="44.79952" lon="1.64592">
        <ele>165</ele>
        <time>2020-07-14T09:42:31Z</time>
      </trkpt>
      <trkpt lat="44.7995" lon="1.64557">
        <ele>165</ele>
        <time>2020-07-14T09:42:48Z</time>
      </trkpt>
      <trkpt lat="44.79947" lon="1.64541">
        <ele>164.52</ele>
        <time>2020-07-14T09:42:57Z</time>
      </trkpt>
      <trkpt lat="44.79945" lon="1.64528">
        <ele>165.96</ele>
        <time>2020-07-14T09:43:04Z</time>
      </trkpt>
      <trkpt lat="44.79941" lon="1.64508">
        <ele>164.52</ele>
        <time>2020-07-14T09:43:14Z</time>
      </trkpt>
      <trkpt lat="44.79933" lon="1.64475">
        <ele>165.48</ele>
        <time>2020-07-14T09:43:34Z</time>
      </trkpt>
      <trkpt lat="44.7993" lon="1.64457">
        <ele>165.48</ele>
        <time>2020-07-14T09:43:44Z</time>
      </trkpt>
      <trkpt lat="44.79922" lon="1.6442">
        <ele>164.04</ele>
        <time>2020-07-14T09:44:04Z</time>
      </trkpt>
      <trkpt lat="44.7992" lon="1.64404">
        <ele>164.04</ele>
        <time>2020-07-14T09:44:14Z</time>
      </trkpt>
      <trkpt lat="44.79921" lon="1.64378">
        <ele>165</ele>
        <time>2020-07-14T09:44:32Z</time>
      </trkpt>
      <trkpt lat="44.79926" lon="1.64351">
        <ele>167.41</ele>
        <time>2020-07-14T09:44:53Z</time>
      </trkpt>
      <trkpt lat="44.79927" lon="1.64343">
        <ele>167.41</ele>
        <time>2020-07-14T09:44:58Z</time>
      </trkpt>
      <trkpt lat="44.79926" lon="1.64335">
        <ele>167.41</ele>
        <time>2020-07-14T09:45:17Z</time>
      </trkpt>
      <trkpt lat="44.79925" lon="1.64334">
        <ele>167.41</ele>
        <time>2020-07-14T09:45:47Z</time>
      </trkpt>
      <trkpt lat="44.79925" lon="1.64323">
        <ele>165.96</ele>
        <time>2020-07-14T09:46:05Z</time>
      </trkpt>
      <trkpt lat="44.79921" lon="1.64296">
        <ele>164.52</ele>
        <time>2020-07-14T09:46:26Z</time>
      </trkpt>
      <trkpt lat="44.79912" lon="1.6427">
        <ele>163.08</ele>
        <time>2020-07-14T09:46:46Z</time>
      </trkpt>
      <trkpt lat="44.79905" lon="1.64238">
        <ele>162.12</ele>
        <time>2020-07-14T09:47:03Z</time>
      </trkpt>
      <trkpt lat="44.79896" lon="1.64219">
        <ele>164.04</ele>
        <time>2020-07-14T09:47:23Z</time>
      </trkpt>
      <trkpt lat="44.79879" lon="1.642">
        <ele>165</ele>
        <time>2020-07-14T09:47:46Z</time>
      </trkpt>
      <trkpt lat="44.79859" lon="1.64198">
        <ele>165.96</ele>
        <time>2020-07-14T09:48:06Z</time>
      </trkpt>
      <trkpt lat="44.79849" lon="1.64206">
        <ele>166.93</ele>
        <time>2020-07-14T09:48:23Z</time>
      </trkpt>
      <trkpt lat="44.79847" lon="1.64209">
        <ele>168.37</ele>
        <time>2020-07-14T09:48:26Z</time>
      </trkpt>
      <trkpt lat="44.79831" lon="1.64224">
        <ele>169.81</ele>
        <time>2020-07-14T09:48:45Z</time>
      </trkpt>
      <trkpt lat="44.79813" lon="1.64233">
        <ele>169.81</ele>
        <time>2020-07-14T09:49:04Z</time>
      </trkpt>
      <trkpt lat="44.79801" lon="1.64235">
        <ele>168.85</ele>
        <time>2020-07-14T09:49:15Z</time>
      </trkpt>
      <trkpt lat="44.79782" lon="1.64243">
        <ele>166.45</ele>
        <time>2020-07-14T09:49:34Z</time>
      </trkpt>
      <trkpt lat="44.79758" lon="1.64244">
        <ele>167.89</ele>
        <time>2020-07-14T09:49:55Z</time>
      </trkpt>
      <trkpt lat="44.7973" lon="1.64239">
        <ele>168.85</ele>
        <time>2020-07-14T09:50:17Z</time>
      </trkpt>
      <trkpt lat="44.79705" lon="1.64241">
        <ele>171.25</ele>
        <time>2020-07-14T09:50:39Z</time>
      </trkpt>
      <trkpt lat="44.79695" lon="1.64246">
        <ele>171.73</ele>
        <time>2020-07-14T09:50:49Z</time>
      </trkpt>
      <trkpt lat="44.79678" lon="1.6426">
        <ele>170.29</ele>
        <time>2020-07-14T09:51:08Z</time>
      </trkpt>
      <trkpt lat="44.79672" lon="1.64264">
        <ele>170.77</ele>
        <time>2020-07-14T09:51:15Z</time>
      </trkpt>
      <trkpt lat="44.79668" lon="1.64269">
        <ele>169.33</ele>
        <time>2020-07-14T09:51:20Z</time>
      </trkpt>
      <trkpt lat="44.79643" lon="1.64276">
        <ele>167.89</ele>
        <time>2020-07-14T09:51:41Z</time>
      </trkpt>
      <trkpt lat="44.79624" lon="1.64287">
        <ele>166.45</ele>
        <time>2020-07-14T09:51:58Z</time>
      </trkpt>
      <trkpt lat="44.79598" lon="1.64295">
        <ele>166.93</ele>
        <time>2020-07-14T09:52:18Z</time>
      </trkpt>
      <trkpt lat="44.79595" lon="1.64294">
        <ele>165</ele>
        <time>2020-07-14T09:52:20Z</time>
      </trkpt>
      <trkpt lat="44.79575" lon="1.64286">
        <ele>165.48</ele>
        <time>2020-07-14T09:52:40Z</time>
      </trkpt>
      <trkpt lat="44.79561" lon="1.64267">
        <ele>165.48</ele>
        <time>2020-07-14T09:53:02Z</time>
      </trkpt>
      <trkpt lat="44.79544" lon="1.64241">
        <ele>165</ele>
        <time>2020-07-14T09:53:24Z</time>
      </trkpt>
      <trkpt lat="44.79539" lon="1.64232">
        <ele>165</ele>
        <time>2020-07-14T09:53:31Z</time>
      </trkpt>
      <trkpt lat="44.7952" lon="1.64207">
        <ele>162.6</ele>
        <time>2020-07-14T09:53:51Z</time>
      </trkpt>
      <trkpt lat="44.79507" lon="1.6418">
        <ele>160.68</ele>
        <time>2020-07-14T09:54:11Z</time>
      </trkpt>
      <trkpt lat="44.79504" lon="1.64175">
        <ele>162.12</ele>
        <time>2020-07-14T09:54:14Z</time>
      </trkpt>
      <trkpt lat="44.79502" lon="1.64169">
        <ele>160.68</ele>
        <time>2020-07-14T09:54:18Z</time>
      </trkpt>
      <trkpt lat="44.79494" lon="1.64141">
        <ele>161.64</ele>
        <time>2020-07-14T09:54:39Z</time>
      </trkpt>
      <trkpt lat="44.79487" lon="1.64106">
        <ele>162.12</ele>
        <time>2020-07-14T09:55:00Z</time>
      </trkpt>
      <trkpt lat="44.79481" lon="1.64071">
        <ele>162.6</ele>
        <time>2020-07-14T09:55:21Z</time>
      </trkpt>
      <trkpt lat="44.7948" lon="1.64046">
        <ele>161.16</ele>
        <time>2020-07-14T09:55:36Z</time>
      </trkpt>
      <trkpt lat="44.79482" lon="1.64039">
        <ele>162.12</ele>
        <time>2020-07-14T09:55:41Z</time>
      </trkpt>
      <trkpt lat="44.79495" lon="1.64008">
        <ele>163.08</ele>
        <time>2020-07-14T09:56:03Z</time>
      </trkpt>
      <trkpt lat="44.79495" lon="1.63968">
        <ele>163.56</ele>
        <time>2020-07-14T09:56:17Z</time>
      </trkpt>
      <trkpt lat="44.79496" lon="1.63967">
        <ele>163.56</ele>
        <time>2020-07-14T09:56:18Z</time>
      </trkpt>
      <trkpt lat="44.79508" lon="1.63945">
        <ele>164.04</ele>
        <time>2020-07-14T09:56:38Z</time>
      </trkpt>
      <trkpt lat="44.79509" lon="1.63937">
        <ele>164.04</ele>
        <time>2020-07-14T09:56:55Z</time>
      </trkpt>
      <trkpt lat="44.79507" lon="1.63933">
        <ele>165</ele>
        <time>2020-07-14T09:57:18Z</time>
      </trkpt>
      <trkpt lat="44.79509" lon="1.63933">
        <ele>165</ele>
        <time>2020-07-14T09:57:42Z</time>
      </trkpt>
      <trkpt lat="44.7951" lon="1.63934">
        <ele>164.04</ele>
        <time>2020-07-14T09:58:05Z</time>
      </trkpt>
      <trkpt lat="44.79514" lon="1.63925">
        <ele>164.04</ele>
        <time>2020-07-14T09:58:35Z</time>
      </trkpt>
      <trkpt lat="44.79517" lon="1.6392">
        <ele>163.56</ele>
        <time>2020-07-14T09:58:51Z</time>
      </trkpt>
      <trkpt lat="44.79521" lon="1.63911">
        <ele>163.56</ele>
        <time>2020-07-14T09:59:09Z</time>
      </trkpt>
      <trkpt lat="44.79531" lon="1.63885">
        <ele>164.04</ele>
        <time>2020-07-14T09:59:27Z</time>
      </trkpt>
      <trkpt lat="44.79544" lon="1.63852">
        <ele>165</ele>
        <time>2020-07-14T09:59:50Z</time>
      </trkpt>
      <trkpt lat="44.79554" lon="1.63825">
        <ele>165.96</ele>
        <time>2020-07-14T10:00:10Z</time>
      </trkpt>
      <trkpt lat="44.79563" lon="1.63789">
        <ele>167.41</ele>
        <time>2020-07-14T10:00:32Z</time>
      </trkpt>
      <trkpt lat="44.79562" lon="1.63782">
        <ele>165.96</ele>
        <time>2020-07-14T10:00:36Z</time>
      </trkpt>
      <trkpt lat="44.79567" lon="1.6376">
        <ele>165</ele>
        <time>2020-07-14T10:00:52Z</time>
      </trkpt>
      <trkpt lat="44.79568" lon="1.63757">
        <ele>166.45</ele>
        <time>2020-07-14T10:00:54Z</time>
      </trkpt>
      <trkpt lat="44.7957" lon="1.63753">
        <ele>165</ele>
        <time>2020-07-14T10:00:58Z</time>
      </trkpt>
      <trkpt lat="44.79573" lon="1.63735">
        <ele>165</ele>
        <time>2020-07-14T10:01:09Z</time>
      </trkpt>
      <trkpt lat="44.79586" lon="1.63695">
        <ele>163.08</ele>
        <time>2020-07-14T10:01:29Z</time>
      </trkpt>
      <trkpt lat="44.79593" lon="1.63682">
        <ele>164.04</ele>
        <time>2020-07-14T10:01:40Z</time>
      </trkpt>
      <trkpt lat="44.79608" lon="1.63658">
        <ele>163.08</ele>
        <time>2020-07-14T10:02:00Z</time>
      </trkpt>
      <trkpt lat="44.79631" lon="1.63633">
        <ele>162.6</ele>
        <time>2020-07-14T10:02:22Z</time>
      </trkpt>
      <trkpt lat="44.79638" lon="1.63628">
        <ele>163.08</ele>
        <time>2020-07-14T10:02:28Z</time>
      </trkpt>
      <trkpt lat="44.79649" lon="1.63614">
        <ele>162.6</ele>
        <time>2020-07-14T10:02:42Z</time>
      </trkpt>
      <trkpt lat="44.79655" lon="1.6361">
        <ele>161.64</ele>
        <time>2020-07-14T10:02:48Z</time>
      </trkpt>
      <trkpt lat="44.79679" lon="1.63605">
        <ele>161.16</ele>
        <time>2020-07-14T10:03:07Z</time>
      </trkpt>
      <trkpt lat="44.79707" lon="1.63604">
        <ele>161.64</ele>
        <time>2020-07-14T10:03:29Z</time>
      </trkpt>
      <trkpt lat="44.79711" lon="1.63604">
        <ele>163.08</ele>
        <time>2020-07-14T10:03:32Z</time>
      </trkpt>
      <trkpt lat="44.79729" lon="1.63609">
        <ele>162.6</ele>
        <time>2020-07-14T10:03:48Z</time>
      </trkpt>
      <trkpt lat="44.7973" lon="1.6361">
        <ele>164.04</ele>
        <time>2020-07-14T10:03:50Z</time>
      </trkpt>
      <trkpt lat="44.79732" lon="1.63611">
        <ele>162.6</ele>
        <time>2020-07-14T10:03:52Z</time>
      </trkpt>
      <trkpt lat="44.79753" lon="1.63626">
        <ele>164.04</ele>
        <time>2020-07-14T10:04:13Z</time>
      </trkpt>
      <trkpt lat="44.79775" lon="1.63635">
        <ele>165</ele>
        <time>2020-07-14T10:04:34Z</time>
      </trkpt>
      <trkpt lat="44.79801" lon="1.63634">
        <ele>162.6</ele>
        <time>2020-07-14T10:04:56Z</time>
      </trkpt>
      <trkpt lat="44.79826" lon="1.6363">
        <ele>162.6</ele>
        <time>2020-07-14T10:05:17Z</time>
      </trkpt>
      <trkpt lat="44.79857" lon="1.63614">
        <ele>162.6</ele>
        <time>2020-07-14T10:05:42Z</time>
      </trkpt>
      <trkpt lat="44.79885" lon="1.63593">
        <ele>164.52</ele>
        <time>2020-07-14T10:06:07Z</time>
      </trkpt>
      <trkpt lat="44.79904" lon="1.63578">
        <ele>165</ele>
        <time>2020-07-14T10:06:28Z</time>
      </trkpt>
      <trkpt lat="44.79919" lon="1.63555">
        <ele>165.96</ele>
        <time>2020-07-14T10:06:45Z</time>
      </trkpt>
      <trkpt lat="44.79921" lon="1.6355">
        <ele>164.52</ele>
        <time>2020-07-14T10:06:48Z</time>
      </trkpt>
      <trkpt lat="44.79934" lon="1.63519">
        <ele>165</ele>
        <time>2020-07-14T10:07:09Z</time>
      </trkpt>
      <trkpt lat="44.79939" lon="1.63503">
        <ele>164.04</ele>
        <time>2020-07-14T10:07:19Z</time>
      </trkpt>
      <trkpt lat="44.79941" lon="1.63499">
        <ele>165.48</ele>
        <time>2020-07-14T10:07:22Z</time>
      </trkpt>
      <trkpt lat="44.79946" lon="1.6348">
        <ele>164.52</ele>
        <time>2020-07-14T10:07:34Z</time>
      </trkpt>
      <trkpt lat="44.79948" lon="1.63476">
        <ele>165.48</ele>
        <time>2020-07-14T10:07:37Z</time>
      </trkpt>
      <trkpt lat="44.79953" lon="1.63454">
        <ele>165.96</ele>
        <time>2020-07-14T10:07:51Z</time>
      </trkpt>
      <trkpt lat="44.79957" lon="1.63423">
        <ele>166.93</ele>
        <time>2020-07-14T10:08:10Z</time>
      </trkpt>
      <trkpt lat="44.79959" lon="1.63391">
        <ele>169.33</ele>
        <time>2020-07-14T10:08:28Z</time>
      </trkpt>
      <trkpt lat="44.7996" lon="1.63362">
        <ele>169.81</ele>
        <time>2020-07-14T10:08:46Z</time>
      </trkpt>
      <trkpt lat="44.79961" lon="1.63352">
        <ele>169.33</ele>
        <time>2020-07-14T10:08:52Z</time>
      </trkpt>
      <trkpt lat="44.79962" lon="1.63349">
        <ele>170.77</ele>
        <time>2020-07-14T10:08:54Z</time>
      </trkpt>
      <trkpt lat="44.79964" lon="1.63337">
        <ele>169.33</ele>
        <time>2020-07-14T10:09:03Z</time>
      </trkpt>
      <trkpt lat="44.79966" lon="1.63306">
        <ele>167.41</ele>
        <time>2020-07-14T10:09:22Z</time>
      </trkpt>
      <trkpt lat="44.79975" lon="1.63278">
        <ele>165</ele>
        <time>2020-07-14T10:09:42Z</time>
      </trkpt>
      <trkpt lat="44.79981" lon="1.63251">
        <ele>164.04</ele>
        <time>2020-07-14T10:10:00Z</time>
      </trkpt>
      <trkpt lat="44.79982" lon="1.6324">
        <ele>164.04</ele>
        <time>2020-07-14T10:10:05Z</time>
      </trkpt>
      <trkpt lat="44.79983" lon="1.63233">
        <ele>163.56</ele>
        <time>2020-07-14T10:10:21Z</time>
      </trkpt>
      <trkpt lat="44.79987" lon="1.6323">
        <ele>163.56</ele>
        <time>2020-07-14T10:10:44Z</time>
      </trkpt>
      <trkpt lat="44.79987" lon="1.63217">
        <ele>164.52</ele>
        <time>2020-07-14T10:11:18Z</time>
      </trkpt>
      <trkpt lat="44.79985" lon="1.63216">
        <ele>164.52</ele>
        <time>2020-07-14T10:11:22Z</time>
      </trkpt>
      <trkpt lat="44.79987" lon="1.63182">
        <ele>165.96</ele>
        <time>2020-07-14T10:11:38Z</time>
      </trkpt>
      <trkpt lat="44.79999" lon="1.63157">
        <ele>167.89</ele>
        <time>2020-07-14T10:12:01Z</time>
      </trkpt>
      <trkpt lat="44.80017" lon="1.63128">
        <ele>167.89</ele>
        <time>2020-07-14T10:12:26Z</time>
      </trkpt>
      <trkpt lat="44.80031" lon="1.63106">
        <ele>168.37</ele>
        <time>2020-07-14T10:12:46Z</time>
      </trkpt>
      <trkpt lat="44.80038" lon="1.6307">
        <ele>166.45</ele>
        <time>2020-07-14T10:13:06Z</time>
      </trkpt>
      <trkpt lat="44.80041" lon="1.63053">
        <ele>166.45</ele>
        <time>2020-07-14T10:13:26Z</time>
      </trkpt>
      <trkpt lat="44.80041" lon="1.63041">
        <ele>167.89</ele>
        <time>2020-07-14T10:13:38Z</time>
      </trkpt>
      <trkpt lat="44.80049" lon="1.63015">
        <ele>167.89</ele>
        <time>2020-07-14T10:13:55Z</time>
      </trkpt>
      <trkpt lat="44.80049" lon="1.63009">
        <ele>166.93</ele>
        <time>2020-07-14T10:13:58Z</time>
      </trkpt>
      <trkpt lat="44.80051" lon="1.63005">
        <ele>167.89</ele>
        <time>2020-07-14T10:14:01Z</time>
      </trkpt>
      <trkpt lat="44.80054" lon="1.62999">
        <ele>167.89</ele>
        <time>2020-07-14T10:14:05Z</time>
      </trkpt>
      <trkpt lat="44.80064" lon="1.62976">
        <ele>166.45</ele>
        <time>2020-07-14T10:14:19Z</time>
      </trkpt>
      <trkpt lat="44.80076" lon="1.62942">
        <ele>166.45</ele>
        <time>2020-07-14T10:14:39Z</time>
      </trkpt>
      <trkpt lat="44.80077" lon="1.62937">
        <ele>167.89</ele>
        <time>2020-07-14T10:14:42Z</time>
      </trkpt>
      <trkpt lat="44.80083" lon="1.62898">
        <ele>167.41</ele>
        <time>2020-07-14T10:15:04Z</time>
      </trkpt>
      <trkpt lat="44.80087" lon="1.62864">
        <ele>166.93</ele>
        <time>2020-07-14T10:15:21Z</time>
      </trkpt>
      <trkpt lat="44.80089" lon="1.62831">
        <ele>167.89</ele>
        <time>2020-07-14T10:15:39Z</time>
      </trkpt>
      <trkpt lat="44.80093" lon="1.628">
        <ele>165.96</ele>
        <time>2020-07-14T10:15:58Z</time>
      </trkpt>
      <trkpt lat="44.80095" lon="1.6278">
        <ele>165</ele>
        <time>2020-07-14T10:16:10Z</time>
      </trkpt>
      <trkpt lat="44.80097" lon="1.6275">
        <ele>164.52</ele>
        <time>2020-07-14T10:16:29Z</time>
      </trkpt>
      <trkpt lat="44.80098" lon="1.62707">
        <ele>165</ele>
        <time>2020-07-14T10:16:48Z</time>
      </trkpt>
      <trkpt lat="44.80098" lon="1.62697">
        <ele>163.56</ele>
        <time>2020-07-14T10:16:54Z</time>
      </trkpt>
      <trkpt lat="44.801" lon="1.62668">
        <ele>163.08</ele>
        <time>2020-07-14T10:17:10Z</time>
      </trkpt>
      <trkpt lat="44.80112" lon="1.62641">
        <ele>163.08</ele>
        <time>2020-07-14T10:17:29Z</time>
      </trkpt>
      <trkpt lat="44.80123" lon="1.62614">
        <ele>162.6</ele>
        <time>2020-07-14T10:17:48Z</time>
      </trkpt>
      <trkpt lat="44.8013" lon="1.6258">
        <ele>163.08</ele>
        <time>2020-07-14T10:18:09Z</time>
      </trkpt>
      <trkpt lat="44.8014" lon="1.62552">
        <ele>161.64</ele>
        <time>2020-07-14T10:18:25Z</time>
      </trkpt>
      <trkpt lat="44.80143" lon="1.62549">
        <ele>161.64</ele>
        <time>2020-07-14T10:18:28Z</time>
      </trkpt>
      <trkpt lat="44.80164" lon="1.62522">
        <ele>161.64</ele>
        <time>2020-07-14T10:18:50Z</time>
      </trkpt>
      <trkpt lat="44.80179" lon="1.62499">
        <ele>161.64</ele>
        <time>2020-07-14T10:19:08Z</time>
      </trkpt>
      <trkpt lat="44.8018" lon="1.62493">
        <ele>160.2</ele>
        <time>2020-07-14T10:19:11Z</time>
      </trkpt>
      <trkpt lat="44.80193" lon="1.62477">
        <ele>160.2</ele>
        <time>2020-07-14T10:19:28Z</time>
      </trkpt>
      <trkpt lat="44.80204" lon="1.62461">
        <ele>161.16</ele>
        <time>2020-07-14T10:19:42Z</time>
      </trkpt>
      <trkpt lat="44.80209" lon="1.62459">
        <ele>159.24</ele>
        <time>2020-07-14T10:19:46Z</time>
      </trkpt>
      <trkpt lat="44.80211" lon="1.62457">
        <ele>160.68</ele>
        <time>2020-07-14T10:19:48Z</time>
      </trkpt>
      <trkpt lat="44.80212" lon="1.62456">
        <ele>160.68</ele>
        <time>2020-07-14T10:19:50Z</time>
      </trkpt>
      <trkpt lat="44.8022" lon="1.62449">
        <ele>160.68</ele>
        <time>2020-07-14T10:20:05Z</time>
      </trkpt>
      <trkpt lat="44.80227" lon="1.62447">
        <ele>160.68</ele>
        <time>2020-07-14T10:20:23Z</time>
      </trkpt>
      <trkpt lat="44.80227" lon="1.62445">
        <ele>160.68</ele>
        <time>2020-07-14T10:20:24Z</time>
      </trkpt>
      <trkpt lat="44.80232" lon="1.62433">
        <ele>160.68</ele>
        <time>2020-07-14T10:20:41Z</time>
      </trkpt>
      <trkpt lat="44.80232" lon="1.62425">
        <ele>159.24</ele>
        <time>2020-07-14T10:21:02Z</time>
      </trkpt>
      <trkpt lat="44.80232" lon="1.62428">
        <ele>159.24</ele>
        <time>2020-07-14T10:21:31Z</time>
      </trkpt>
      <trkpt lat="44.80231" lon="1.62426">
        <ele>159.24</ele>
        <time>2020-07-14T10:22:03Z</time>
      </trkpt>
      <trkpt lat="44.80237" lon="1.6242">
        <ele>158.27</ele>
        <time>2020-07-14T10:22:21Z</time>
      </trkpt>
      <trkpt lat="44.80235" lon="1.62415">
        <ele>159.72</ele>
        <time>2020-07-14T10:22:38Z</time>
      </trkpt>
      <trkpt lat="44.80235" lon="1.62413">
        <ele>157.79</ele>
        <time>2020-07-14T10:22:51Z</time>
      </trkpt>
      <trkpt lat="44.80231" lon="1.62418">
        <ele>158.27</ele>
        <time>2020-07-14T10:23:16Z</time>
      </trkpt>
      <trkpt lat="44.80235" lon="1.62417">
        <ele>158.27</ele>
        <time>2020-07-14T10:23:37Z</time>
      </trkpt>
      <trkpt lat="44.80232" lon="1.62408">
        <ele>156.83</ele>
        <time>2020-07-14T10:23:54Z</time>
      </trkpt>
      <trkpt lat="44.80237" lon="1.62412">
        <ele>156.83</ele>
        <time>2020-07-14T10:24:17Z</time>
      </trkpt>
      <trkpt lat="44.80228" lon="1.62401">
        <ele>156.35</ele>
        <time>2020-07-14T10:24:45Z</time>
      </trkpt>
      <trkpt lat="44.80227" lon="1.62396">
        <ele>155.87</ele>
        <time>2020-07-14T10:25:13Z</time>
      </trkpt>
      <trkpt lat="44.80229" lon="1.62396">
        <ele>156.83</ele>
        <time>2020-07-14T10:25:32Z</time>
      </trkpt>
      <trkpt lat="44.80229" lon="1.62394">
        <ele>156.83</ele>
        <time>2020-07-14T10:25:34Z</time>
      </trkpt>
      <trkpt lat="44.80221" lon="1.6236">
        <ele>156.83</ele>
        <time>2020-07-14T10:25:51Z</time>
      </trkpt>
      <trkpt lat="44.80215" lon="1.62333">
        <ele>155.87</ele>
        <time>2020-07-14T10:26:08Z</time>
      </trkpt>
      <trkpt lat="44.80214" lon="1.6233">
        <ele>157.31</ele>
        <time>2020-07-14T10:26:10Z</time>
      </trkpt>
      <trkpt lat="44.80209" lon="1.62303">
        <ele>157.31</ele>
        <time>2020-07-14T10:26:25Z</time>
      </trkpt>
      <trkpt lat="44.8021" lon="1.62296">
        <ele>156.83</ele>
        <time>2020-07-14T10:26:38Z</time>
      </trkpt>
      <trkpt lat="44.80209" lon="1.62294">
        <ele>156.35</ele>
        <time>2020-07-14T10:26:39Z</time>
      </trkpt>
      <trkpt lat="44.80205" lon="1.62277">
        <ele>156.35</ele>
        <time>2020-07-14T10:26:52Z</time>
      </trkpt>
      <trkpt lat="44.80206" lon="1.62275">
        <ele>154.91</ele>
        <time>2020-07-14T10:27:03Z</time>
      </trkpt>
      <trkpt lat="44.80196" lon="1.62256">
        <ele>155.87</ele>
        <time>2020-07-14T10:27:19Z</time>
      </trkpt>
      <trkpt lat="44.80197" lon="1.62259">
        <ele>156.35</ele>
        <time>2020-07-14T10:27:37Z</time>
      </trkpt>
      <trkpt lat="44.802" lon="1.62255">
        <ele>156.35</ele>
        <time>2020-07-14T10:27:59Z</time>
      </trkpt>
      <trkpt lat="44.80199" lon="1.62247">
        <ele>158.75</ele>
        <time>2020-07-14T10:28:14Z</time>
      </trkpt>
      <trkpt lat="44.80198" lon="1.6224">
        <ele>157.79</ele>
        <time>2020-07-14T10:28:21Z</time>
      </trkpt>
      <trkpt lat="44.80202" lon="1.62226">
        <ele>157.31</ele>
        <time>2020-07-14T10:28:41Z</time>
      </trkpt>
      <trkpt lat="44.8021" lon="1.62214">
        <ele>156.83</ele>
        <time>2020-07-14T10:28:58Z</time>
      </trkpt>
      <trkpt lat="44.80212" lon="1.62205">
        <ele>157.79</ele>
        <time>2020-07-14T10:29:05Z</time>
      </trkpt>
      <trkpt lat="44.80207" lon="1.62178">
        <ele>158.27</ele>
        <time>2020-07-14T10:29:25Z</time>
      </trkpt>
      <trkpt lat="44.80198" lon="1.62149">
        <ele>160.2</ele>
        <time>2020-07-14T10:29:47Z</time>
      </trkpt>
      <trkpt lat="44.80189" lon="1.62125">
        <ele>160.68</ele>
        <time>2020-07-14T10:30:09Z</time>
      </trkpt>
      <trkpt lat="44.80186" lon="1.6212">
        <ele>163.08</ele>
        <time>2020-07-14T10:30:21Z</time>
      </trkpt>
      <trkpt lat="44.8018" lon="1.62107">
        <ele>165</ele>
        <time>2020-07-14T10:30:38Z</time>
      </trkpt>
      <trkpt lat="44.80176" lon="1.62089">
        <ele>166.93</ele>
        <time>2020-07-14T10:30:58Z</time>
      </trkpt>
      <trkpt lat="44.80168" lon="1.62074">
        <ele>168.85</ele>
        <time>2020-07-14T10:31:16Z</time>
      </trkpt>
      <trkpt lat="44.80164" lon="1.62053">
        <ele>171.73</ele>
        <time>2020-07-14T10:31:38Z</time>
      </trkpt>
      <trkpt lat="44.80158" lon="1.62039">
        <ele>174.14</ele>
        <time>2020-07-14T10:31:56Z</time>
      </trkpt>
      <trkpt lat="44.80155" lon="1.62031">
        <ele>175.58</ele>
        <time>2020-07-14T10:32:11Z</time>
      </trkpt>
      <trkpt lat="44.8015" lon="1.62014">
        <ele>178.94</ele>
        <time>2020-07-14T10:32:33Z</time>
      </trkpt>
      <trkpt lat="44.80144" lon="1.62002">
        <ele>182.31</ele>
        <time>2020-07-14T10:32:52Z</time>
      </trkpt>
      <trkpt lat="44.80139" lon="1.61997">
        <ele>185.19</ele>
        <time>2020-07-14T10:33:05Z</time>
      </trkpt>
      <trkpt lat="44.80135" lon="1.61988">
        <ele>186.63</ele>
        <time>2020-07-14T10:33:16Z</time>
      </trkpt>
      <trkpt lat="44.80131" lon="1.61969">
        <ele>188.56</ele>
        <time>2020-07-14T10:33:36Z</time>
      </trkpt>
      <trkpt lat="44.80129" lon="1.61965">
        <ele>188.08</ele>
        <time>2020-07-14T10:33:53Z</time>
      </trkpt>
      <trkpt lat="44.80127" lon="1.61962">
        <ele>188.08</ele>
        <time>2020-07-14T10:34:27Z</time>
      </trkpt>
      <trkpt lat="44.80137" lon="1.61961">
        <ele>187.59</ele>
        <time>2020-07-14T10:34:55Z</time>
      </trkpt>
      <trkpt lat="44.80139" lon="1.6195">
        <ele>188.08</ele>
        <time>2020-07-14T10:35:11Z</time>
      </trkpt>
      <trkpt lat="44.80137" lon="1.61953">
        <ele>188.08</ele>
        <time>2020-07-14T10:35:33Z</time>
      </trkpt>
      <trkpt lat="44.80133" lon="1.61946">
        <ele>188.08</ele>
        <time>2020-07-14T10:35:52Z</time>
      </trkpt>
      <trkpt lat="44.80129" lon="1.61943">
        <ele>187.59</ele>
        <time>2020-07-14T10:36:17Z</time>
      </trkpt>
      <trkpt lat="44.80124" lon="1.61944">
        <ele>187.59</ele>
        <time>2020-07-14T10:36:41Z</time>
      </trkpt>
      <trkpt lat="44.80126" lon="1.6194">
        <ele>185.67</ele>
        <time>2020-07-14T10:37:05Z</time>
      </trkpt>
      <trkpt lat="44.80115" lon="1.61925">
        <ele>185.67</ele>
        <time>2020-07-14T10:37:20Z</time>
      </trkpt>
      <trkpt lat="44.80102" lon="1.61904">
        <ele>184.71</ele>
        <time>2020-07-14T10:37:38Z</time>
      </trkpt>
      <trkpt lat="44.80088" lon="1.61893">
        <ele>184.71</ele>
        <time>2020-07-14T10:37:55Z</time>
      </trkpt>
      <trkpt lat="44.80072" lon="1.61881">
        <ele>184.23</ele>
        <time>2020-07-14T10:38:16Z</time>
      </trkpt>
      <trkpt lat="44.80064" lon="1.6187">
        <ele>184.23</ele>
        <time>2020-07-14T10:38:39Z</time>
      </trkpt>
      <trkpt lat="44.80048" lon="1.61853">
        <ele>183.27</ele>
        <time>2020-07-14T10:39:03Z</time>
      </trkpt>
      <trkpt lat="44.80036" lon="1.61852">
        <ele>183.75</ele>
        <time>2020-07-14T10:39:22Z</time>
      </trkpt>
      <trkpt lat="44.80019" lon="1.61843">
        <ele>183.75</ele>
        <time>2020-07-14T10:39:43Z</time>
      </trkpt>
      <trkpt lat="44.80015" lon="1.6184">
        <ele>183.27</ele>
        <time>2020-07-14T10:40:00Z</time>
      </trkpt>
      <trkpt lat="44.80017" lon="1.61837">
        <ele>183.27</ele>
        <time>2020-07-14T10:40:29Z</time>
      </trkpt>
      <trkpt lat="44.8001" lon="1.61834">
        <ele>182.79</ele>
        <time>2020-07-14T10:40:54Z</time>
      </trkpt>
      <trkpt lat="44.80021" lon="1.61845">
        <ele>184.23</ele>
        <time>2020-07-14T10:41:12Z</time>
      </trkpt>
      <trkpt lat="44.80021" lon="1.61845">
        <ele>184.23</ele>
        <time>2020-07-14T10:41:13Z</time>
      </trkpt>
      <trkpt lat="44.80036" lon="1.61844">
        <ele>184.23</ele>
        <time>2020-07-14T10:41:31Z</time>
      </trkpt>
      <trkpt lat="44.80052" lon="1.61854">
        <ele>184.71</ele>
        <time>2020-07-14T10:41:52Z</time>
      </trkpt>
      <trkpt lat="44.8007" lon="1.61875">
        <ele>183.27</ele>
        <time>2020-07-14T10:42:16Z</time>
      </trkpt>
      <trkpt lat="44.80083" lon="1.61882">
        <ele>185.19</ele>
        <time>2020-07-14T10:42:38Z</time>
      </trkpt>
      <trkpt lat="44.80084" lon="1.61885">
        <ele>185.67</ele>
        <time>2020-07-14T10:42:52Z</time>
      </trkpt>
    </trkseg>
  </trk>
</gpx>